<?xml version="1.0" encoding="UTF-8" standalone="no" ?>
<gpx xmlns="http://www.topografix.com/GPX/1/1" xmlns:xsi="http://www.w3.org/2001/XMLSchema-instance" xsi:schemaLocation="http://www.topografix.com/GPX/1/1 http://www.topografix.com/GPX/1/1/gpx.xsd" version="1.1" creator="VisuGPX - https://www.visugpx.com">
  <metadata>
    <name>MADERE - PESESTRE - SANTANA - Caldeirao Verde</name>
    <desc><![CDATA[Un aller/retour le long de llevada, aérien et 5 tunnels. ]]></desc>
  </metadata>
  <wpt lat="32.78362" lon="-16.92729">
    <ele>904</ele>
    <name><![CDATA[004]]></name>
    <desc><![CDATA[04-MAI-13 22:24:01]]></desc>
  </wpt>
  <wpt lat="32.78309" lon="-16.92692">
    <ele>904.239014</ele>
    <name><![CDATA[005]]></name>
    <desc><![CDATA[04-MAI-13 22:25:45]]></desc>
  </wpt>
  <wpt lat="32.78363" lon="-16.92642">
    <ele>905.921143</ele>
    <name><![CDATA[006]]></name>
    <desc><![CDATA[04-MAI-13 22:28:00]]></desc>
  </wpt>
  <wpt lat="32.78363" lon="-16.92642">
    <ele>905.921143</ele>
    <name><![CDATA[007]]></name>
    <desc><![CDATA[04-MAI-13 22:28:06]]></desc>
  </wpt>
  <wpt lat="32.78027" lon="-16.93138">
    <ele>906</ele>
    <name><![CDATA[008]]></name>
    <desc><![CDATA[04-MAI-13 22:37:40]]></desc>
  </wpt>
  <wpt lat="32.78047" lon="-16.9319">
    <ele>906.161377</ele>
    <name><![CDATA[009]]></name>
    <desc><![CDATA[04-MAI-13 22:38:26]]></desc>
  </wpt>
  <wpt lat="32.77498" lon="-16.93626">
    <ele>934.760498</ele>
    <name><![CDATA[010]]></name>
    <desc><![CDATA[04-MAI-13 23:00:01]]></desc>
  </wpt>
  <wpt lat="32.78482" lon="-16.92511">
    <ele>919.860352</ele>
    <name><![CDATA[011]]></name>
    <desc><![CDATA[04-MAI-13 23:35:31]]></desc>
  </wpt>
  <wpt lat="32.78473" lon="-16.92531">
    <ele>919.620117</ele>
    <name><![CDATA[012]]></name>
    <desc><![CDATA[04-MAI-13 23:36:01]]></desc>
  </wpt>
  <wpt lat="32.78374" lon="-16.90606">
    <ele>66</ele>
    <name><![CDATA[013]]></name>
    <desc><![CDATA[05-MAI-13 2:16:16]]></desc>
  </wpt>
  <trk>
    <name><![CDATA[ACTIVE LOG 005]]></name>
    <trkseg>
      <trkpt lat="32.78373" lon="-16.90622">
        <ele>849.942871</ele>
        <time>2013-05-05T08:14:50Z</time>
      </trkpt>
      <trkpt lat="32.78372" lon="-16.90637">
        <ele>850.423584</ele>
        <time>2013-05-05T08:15:03Z</time>
      </trkpt>
      <trkpt lat="32.78371" lon="-16.90638">
        <ele>854.749268</ele>
        <time>2013-05-05T08:15:05Z</time>
      </trkpt>
      <trkpt lat="32.7837" lon="-16.90639">
        <ele>860.036621</ele>
        <time>2013-05-05T08:15:07Z</time>
      </trkpt>
      <trkpt lat="32.78371" lon="-16.90638">
        <ele>864.843262</ele>
        <time>2013-05-05T08:15:09Z</time>
      </trkpt>
      <trkpt lat="32.78373" lon="-16.90636">
        <ele>869.649902</ele>
        <time>2013-05-05T08:15:11Z</time>
      </trkpt>
      <trkpt lat="32.78373" lon="-16.90635">
        <ele>873.014404</ele>
        <time>2013-05-05T08:15:13Z</time>
      </trkpt>
      <trkpt lat="32.78372" lon="-16.90636">
        <ele>876.37915</ele>
        <time>2013-05-05T08:15:15Z</time>
      </trkpt>
      <trkpt lat="32.78369" lon="-16.90638">
        <ele>879.743652</ele>
        <time>2013-05-05T08:15:17Z</time>
      </trkpt>
      <trkpt lat="32.7837" lon="-16.90635">
        <ele>883.588867</ele>
        <time>2013-05-05T08:15:19Z</time>
      </trkpt>
      <trkpt lat="32.78372" lon="-16.90629">
        <ele>887.914795</ele>
        <time>2013-05-05T08:15:22Z</time>
      </trkpt>
      <trkpt lat="32.78373" lon="-16.90623">
        <ele>891.279297</ele>
        <time>2013-05-05T08:15:26Z</time>
      </trkpt>
      <trkpt lat="32.78373" lon="-16.90622">
        <ele>891.76001</ele>
        <time>2013-05-05T08:15:27Z</time>
      </trkpt>
      <trkpt lat="32.78373" lon="-16.9062">
        <ele>892.72168</ele>
        <time>2013-05-05T08:15:29Z</time>
      </trkpt>
      <trkpt lat="32.78371" lon="-16.90617">
        <ele>895.605469</ele>
        <time>2013-05-05T08:15:38Z</time>
      </trkpt>
      <trkpt lat="32.78356" lon="-16.90628">
        <ele>897.047363</ele>
        <time>2013-05-05T08:16:03Z</time>
      </trkpt>
      <trkpt lat="32.78358" lon="-16.90625">
        <ele>897.528076</ele>
        <time>2013-05-05T08:16:19Z</time>
      </trkpt>
      <trkpt lat="32.78372" lon="-16.90633">
        <ele>898.489258</ele>
        <time>2013-05-05T08:16:30Z</time>
      </trkpt>
      <trkpt lat="32.7838" lon="-16.90648">
        <ele>898.008789</ele>
        <time>2013-05-05T08:16:44Z</time>
      </trkpt>
      <trkpt lat="32.78392" lon="-16.90656">
        <ele>898.008789</ele>
        <time>2013-05-05T08:16:55Z</time>
      </trkpt>
      <trkpt lat="32.78392" lon="-16.90664">
        <ele>898.008789</ele>
        <time>2013-05-05T08:17:10Z</time>
      </trkpt>
      <trkpt lat="32.78396" lon="-16.90677">
        <ele>898.969971</ele>
        <time>2013-05-05T08:17:21Z</time>
      </trkpt>
      <trkpt lat="32.78405" lon="-16.90674">
        <ele>898.969971</ele>
        <time>2013-05-05T08:17:35Z</time>
      </trkpt>
      <trkpt lat="32.78403" lon="-16.90676">
        <ele>898.969971</ele>
        <time>2013-05-05T08:17:59Z</time>
      </trkpt>
      <trkpt lat="32.78409" lon="-16.90664">
        <ele>898.969971</ele>
        <time>2013-05-05T08:18:11Z</time>
      </trkpt>
      <trkpt lat="32.78411" lon="-16.90659">
        <ele>898.969971</ele>
        <time>2013-05-05T08:18:17Z</time>
      </trkpt>
      <trkpt lat="32.78424" lon="-16.90655">
        <ele>898.489258</ele>
        <time>2013-05-05T08:18:29Z</time>
      </trkpt>
      <trkpt lat="32.78439" lon="-16.90662">
        <ele>898.969971</ele>
        <time>2013-05-05T08:18:41Z</time>
      </trkpt>
      <trkpt lat="32.78454" lon="-16.90674">
        <ele>899.450684</ele>
        <time>2013-05-05T08:18:55Z</time>
      </trkpt>
      <trkpt lat="32.78463" lon="-16.90676">
        <ele>898.969971</ele>
        <time>2013-05-05T08:19:01Z</time>
      </trkpt>
      <trkpt lat="32.78479" lon="-16.90675">
        <ele>898.969971</ele>
        <time>2013-05-05T08:19:09Z</time>
      </trkpt>
      <trkpt lat="32.78494" lon="-16.9068">
        <ele>899.450684</ele>
        <time>2013-05-05T08:19:21Z</time>
      </trkpt>
      <trkpt lat="32.78506" lon="-16.90691">
        <ele>899.450684</ele>
        <time>2013-05-05T08:19:33Z</time>
      </trkpt>
      <trkpt lat="32.78512" lon="-16.9071">
        <ele>899.931396</ele>
        <time>2013-05-05T08:19:44Z</time>
      </trkpt>
      <trkpt lat="32.78518" lon="-16.90719">
        <ele>899.450684</ele>
        <time>2013-05-05T08:19:53Z</time>
      </trkpt>
      <trkpt lat="32.7853" lon="-16.90733">
        <ele>899.931396</ele>
        <time>2013-05-05T08:20:06Z</time>
      </trkpt>
      <trkpt lat="32.7854" lon="-16.90737">
        <ele>899.450684</ele>
        <time>2013-05-05T08:20:15Z</time>
      </trkpt>
      <trkpt lat="32.78543" lon="-16.9073">
        <ele>899.931396</ele>
        <time>2013-05-05T08:20:19Z</time>
      </trkpt>
      <trkpt lat="32.78551" lon="-16.90718">
        <ele>899.931396</ele>
        <time>2013-05-05T08:20:27Z</time>
      </trkpt>
      <trkpt lat="32.78552" lon="-16.90712">
        <ele>899.931396</ele>
        <time>2013-05-05T08:20:32Z</time>
      </trkpt>
      <trkpt lat="32.78576" lon="-16.90712">
        <ele>899.931396</ele>
        <time>2013-05-05T08:20:47Z</time>
      </trkpt>
      <trkpt lat="32.78591" lon="-16.9072">
        <ele>900.412109</ele>
        <time>2013-05-05T08:20:58Z</time>
      </trkpt>
      <trkpt lat="32.78599" lon="-16.90726">
        <ele>900.412109</ele>
        <time>2013-05-05T08:21:08Z</time>
      </trkpt>
      <trkpt lat="32.78608" lon="-16.90745">
        <ele>900.412109</ele>
        <time>2013-05-05T08:21:21Z</time>
      </trkpt>
      <trkpt lat="32.78611" lon="-16.9075">
        <ele>900.412109</ele>
        <time>2013-05-05T08:21:25Z</time>
      </trkpt>
      <trkpt lat="32.78617" lon="-16.90772">
        <ele>900.412109</ele>
        <time>2013-05-05T08:21:39Z</time>
      </trkpt>
      <trkpt lat="32.7862" lon="-16.9079">
        <ele>900.892578</ele>
        <time>2013-05-05T08:21:50Z</time>
      </trkpt>
      <trkpt lat="32.78616" lon="-16.90809">
        <ele>900.892578</ele>
        <time>2013-05-05T08:22:02Z</time>
      </trkpt>
      <trkpt lat="32.78616" lon="-16.90813">
        <ele>900.412109</ele>
        <time>2013-05-05T08:22:04Z</time>
      </trkpt>
      <trkpt lat="32.78609" lon="-16.90829">
        <ele>900.412109</ele>
        <time>2013-05-05T08:22:17Z</time>
      </trkpt>
      <trkpt lat="32.78602" lon="-16.90842">
        <ele>900.412109</ele>
        <time>2013-05-05T08:22:28Z</time>
      </trkpt>
      <trkpt lat="32.786" lon="-16.9085">
        <ele>900.412109</ele>
        <time>2013-05-05T08:22:34Z</time>
      </trkpt>
      <trkpt lat="32.78591" lon="-16.90861">
        <ele>901.373291</ele>
        <time>2013-05-05T08:22:41Z</time>
      </trkpt>
      <trkpt lat="32.78581" lon="-16.90872">
        <ele>900.892578</ele>
        <time>2013-05-05T08:22:51Z</time>
      </trkpt>
      <trkpt lat="32.78579" lon="-16.90873">
        <ele>900.892578</ele>
        <time>2013-05-05T08:22:53Z</time>
      </trkpt>
      <trkpt lat="32.78575" lon="-16.9088">
        <ele>900.412109</ele>
        <time>2013-05-05T08:22:58Z</time>
      </trkpt>
      <trkpt lat="32.78571" lon="-16.90889">
        <ele>901.373291</ele>
        <time>2013-05-05T08:23:03Z</time>
      </trkpt>
      <trkpt lat="32.78569" lon="-16.90895">
        <ele>900.892578</ele>
        <time>2013-05-05T08:23:07Z</time>
      </trkpt>
      <trkpt lat="32.7856" lon="-16.90913">
        <ele>900.412109</ele>
        <time>2013-05-05T08:23:19Z</time>
      </trkpt>
      <trkpt lat="32.78559" lon="-16.90916">
        <ele>900.412109</ele>
        <time>2013-05-05T08:23:21Z</time>
      </trkpt>
      <trkpt lat="32.78548" lon="-16.90932">
        <ele>899.931396</ele>
        <time>2013-05-05T08:23:34Z</time>
      </trkpt>
      <trkpt lat="32.78545" lon="-16.90934">
        <ele>899.931396</ele>
        <time>2013-05-05T08:23:37Z</time>
      </trkpt>
      <trkpt lat="32.78534" lon="-16.90948">
        <ele>900.412109</ele>
        <time>2013-05-05T08:23:50Z</time>
      </trkpt>
      <trkpt lat="32.78525" lon="-16.90951">
        <ele>899.931396</ele>
        <time>2013-05-05T08:23:55Z</time>
      </trkpt>
      <trkpt lat="32.7851" lon="-16.90955">
        <ele>900.412109</ele>
        <time>2013-05-05T08:24:07Z</time>
      </trkpt>
      <trkpt lat="32.78503" lon="-16.90961">
        <ele>900.412109</ele>
        <time>2013-05-05T08:24:13Z</time>
      </trkpt>
      <trkpt lat="32.78494" lon="-16.90979">
        <ele>900.412109</ele>
        <time>2013-05-05T08:24:27Z</time>
      </trkpt>
      <trkpt lat="32.78488" lon="-16.91007">
        <ele>899.931396</ele>
        <time>2013-05-05T08:24:40Z</time>
      </trkpt>
      <trkpt lat="32.78486" lon="-16.91016">
        <ele>899.450684</ele>
        <time>2013-05-05T08:24:46Z</time>
      </trkpt>
      <trkpt lat="32.78487" lon="-16.91024">
        <ele>899.931396</ele>
        <time>2013-05-05T08:24:50Z</time>
      </trkpt>
      <trkpt lat="32.78485" lon="-16.91046">
        <ele>899.931396</ele>
        <time>2013-05-05T08:25:06Z</time>
      </trkpt>
      <trkpt lat="32.7848" lon="-16.91059">
        <ele>898.489258</ele>
        <time>2013-05-05T08:25:19Z</time>
      </trkpt>
      <trkpt lat="32.78471" lon="-16.91069">
        <ele>898.969971</ele>
        <time>2013-05-05T08:25:30Z</time>
      </trkpt>
      <trkpt lat="32.78459" lon="-16.9108">
        <ele>898.489258</ele>
        <time>2013-05-05T08:25:41Z</time>
      </trkpt>
      <trkpt lat="32.78453" lon="-16.91103">
        <ele>898.489258</ele>
        <time>2013-05-05T08:25:55Z</time>
      </trkpt>
      <trkpt lat="32.78445" lon="-16.91113">
        <ele>898.969971</ele>
        <time>2013-05-05T08:26:08Z</time>
      </trkpt>
      <trkpt lat="32.78438" lon="-16.91117">
        <ele>898.969971</ele>
        <time>2013-05-05T08:26:15Z</time>
      </trkpt>
      <trkpt lat="32.78431" lon="-16.91122">
        <ele>899.450684</ele>
        <time>2013-05-05T08:26:20Z</time>
      </trkpt>
      <trkpt lat="32.78424" lon="-16.91134">
        <ele>899.450684</ele>
        <time>2013-05-05T08:26:31Z</time>
      </trkpt>
      <trkpt lat="32.78411" lon="-16.91143">
        <ele>899.450684</ele>
        <time>2013-05-05T08:26:45Z</time>
      </trkpt>
      <trkpt lat="32.78399" lon="-16.91147">
        <ele>899.450684</ele>
        <time>2013-05-05T08:26:57Z</time>
      </trkpt>
      <trkpt lat="32.78392" lon="-16.91157">
        <ele>898.969971</ele>
        <time>2013-05-05T08:27:15Z</time>
      </trkpt>
      <trkpt lat="32.78387" lon="-16.91161">
        <ele>898.969971</ele>
        <time>2013-05-05T08:27:19Z</time>
      </trkpt>
      <trkpt lat="32.78373" lon="-16.91169">
        <ele>898.489258</ele>
        <time>2013-05-05T08:27:32Z</time>
      </trkpt>
      <trkpt lat="32.78358" lon="-16.91174">
        <ele>898.489258</ele>
        <time>2013-05-05T08:27:46Z</time>
      </trkpt>
      <trkpt lat="32.78343" lon="-16.91181">
        <ele>897.528076</ele>
        <time>2013-05-05T08:27:59Z</time>
      </trkpt>
      <trkpt lat="32.78335" lon="-16.91195">
        <ele>898.008789</ele>
        <time>2013-05-05T08:28:10Z</time>
      </trkpt>
      <trkpt lat="32.78329" lon="-16.91204">
        <ele>898.008789</ele>
        <time>2013-05-05T08:28:19Z</time>
      </trkpt>
      <trkpt lat="32.78324" lon="-16.91222">
        <ele>898.489258</ele>
        <time>2013-05-05T08:28:34Z</time>
      </trkpt>
      <trkpt lat="32.78317" lon="-16.91227">
        <ele>899.450684</ele>
        <time>2013-05-05T08:28:46Z</time>
      </trkpt>
      <trkpt lat="32.78315" lon="-16.91227">
        <ele>898.008789</ele>
        <time>2013-05-05T08:28:49Z</time>
      </trkpt>
      <trkpt lat="32.78308" lon="-16.91239">
        <ele>898.489258</ele>
        <time>2013-05-05T08:29:06Z</time>
      </trkpt>
      <trkpt lat="32.78309" lon="-16.91256">
        <ele>897.528076</ele>
        <time>2013-05-05T08:29:22Z</time>
      </trkpt>
      <trkpt lat="32.78303" lon="-16.91267">
        <ele>897.528076</ele>
        <time>2013-05-05T08:29:52Z</time>
      </trkpt>
      <trkpt lat="32.78316" lon="-16.91282">
        <ele>897.528076</ele>
        <time>2013-05-05T08:30:11Z</time>
      </trkpt>
      <trkpt lat="32.7833" lon="-16.91279">
        <ele>897.047363</ele>
        <time>2013-05-05T08:30:23Z</time>
      </trkpt>
      <trkpt lat="32.78326" lon="-16.9128">
        <ele>896.566895</ele>
        <time>2013-05-05T08:30:30Z</time>
      </trkpt>
      <trkpt lat="32.78323" lon="-16.91282">
        <ele>897.047363</ele>
        <time>2013-05-05T08:30:38Z</time>
      </trkpt>
      <trkpt lat="32.78317" lon="-16.9128">
        <ele>897.528076</ele>
        <time>2013-05-05T08:30:54Z</time>
      </trkpt>
      <trkpt lat="32.78316" lon="-16.91293">
        <ele>897.528076</ele>
        <time>2013-05-05T08:31:08Z</time>
      </trkpt>
      <trkpt lat="32.78313" lon="-16.91315">
        <ele>898.008789</ele>
        <time>2013-05-05T08:31:32Z</time>
      </trkpt>
      <trkpt lat="32.78309" lon="-16.91324">
        <ele>898.008789</ele>
        <time>2013-05-05T08:31:44Z</time>
      </trkpt>
      <trkpt lat="32.78305" lon="-16.91332">
        <ele>894.644043</ele>
        <time>2013-05-05T08:32:00Z</time>
      </trkpt>
      <trkpt lat="32.78306" lon="-16.91337">
        <ele>893.202148</ele>
        <time>2013-05-05T08:32:05Z</time>
      </trkpt>
      <trkpt lat="32.78302" lon="-16.9135">
        <ele>890.318115</ele>
        <time>2013-05-05T08:32:20Z</time>
      </trkpt>
      <trkpt lat="32.78296" lon="-16.91359">
        <ele>888.876221</ele>
        <time>2013-05-05T08:32:38Z</time>
      </trkpt>
      <trkpt lat="32.78284" lon="-16.91362">
        <ele>888.395508</ele>
        <time>2013-05-05T08:32:50Z</time>
      </trkpt>
      <trkpt lat="32.78279" lon="-16.91368">
        <ele>887.914795</ele>
        <time>2013-05-05T08:33:05Z</time>
      </trkpt>
      <trkpt lat="32.78289" lon="-16.91379">
        <ele>888.395508</ele>
        <time>2013-05-05T08:33:30Z</time>
      </trkpt>
      <trkpt lat="32.78291" lon="-16.9138">
        <ele>892.240967</ele>
        <time>2013-05-05T08:33:41Z</time>
      </trkpt>
      <trkpt lat="32.78293" lon="-16.91385">
        <ele>895.605469</ele>
        <time>2013-05-05T08:33:52Z</time>
      </trkpt>
      <trkpt lat="32.78302" lon="-16.91393">
        <ele>897.528076</ele>
        <time>2013-05-05T08:34:06Z</time>
      </trkpt>
      <trkpt lat="32.78307" lon="-16.91403">
        <ele>897.528076</ele>
        <time>2013-05-05T08:34:16Z</time>
      </trkpt>
      <trkpt lat="32.78303" lon="-16.91415">
        <ele>897.528076</ele>
        <time>2013-05-05T08:34:27Z</time>
      </trkpt>
      <trkpt lat="32.783" lon="-16.91422">
        <ele>897.528076</ele>
        <time>2013-05-05T08:34:33Z</time>
      </trkpt>
      <trkpt lat="32.78296" lon="-16.91433">
        <ele>897.047363</ele>
        <time>2013-05-05T08:34:42Z</time>
      </trkpt>
      <trkpt lat="32.78295" lon="-16.91435">
        <ele>897.528076</ele>
        <time>2013-05-05T08:34:44Z</time>
      </trkpt>
      <trkpt lat="32.7829" lon="-16.9145">
        <ele>897.528076</ele>
        <time>2013-05-05T08:34:56Z</time>
      </trkpt>
      <trkpt lat="32.78276" lon="-16.91454">
        <ele>897.047363</ele>
        <time>2013-05-05T08:35:07Z</time>
      </trkpt>
      <trkpt lat="32.78268" lon="-16.91465">
        <ele>897.047363</ele>
        <time>2013-05-05T08:35:21Z</time>
      </trkpt>
      <trkpt lat="32.78259" lon="-16.91479">
        <ele>897.047363</ele>
        <time>2013-05-05T08:35:32Z</time>
      </trkpt>
      <trkpt lat="32.78255" lon="-16.91483">
        <ele>897.047363</ele>
        <time>2013-05-05T08:35:35Z</time>
      </trkpt>
      <trkpt lat="32.78251" lon="-16.91487">
        <ele>896.566895</ele>
        <time>2013-05-05T08:35:40Z</time>
      </trkpt>
      <trkpt lat="32.78247" lon="-16.91496">
        <ele>896.086182</ele>
        <time>2013-05-05T08:35:48Z</time>
      </trkpt>
      <trkpt lat="32.78245" lon="-16.91503">
        <ele>897.047363</ele>
        <time>2013-05-05T08:35:52Z</time>
      </trkpt>
      <trkpt lat="32.78237" lon="-16.91513">
        <ele>897.047363</ele>
        <time>2013-05-05T08:36:02Z</time>
      </trkpt>
      <trkpt lat="32.78233" lon="-16.91518">
        <ele>896.566895</ele>
        <time>2013-05-05T08:36:08Z</time>
      </trkpt>
      <trkpt lat="32.7823" lon="-16.91521">
        <ele>896.566895</ele>
        <time>2013-05-05T08:36:11Z</time>
      </trkpt>
      <trkpt lat="32.78228" lon="-16.91525">
        <ele>897.047363</ele>
        <time>2013-05-05T08:36:14Z</time>
      </trkpt>
      <trkpt lat="32.78225" lon="-16.91538">
        <ele>896.086182</ele>
        <time>2013-05-05T08:36:24Z</time>
      </trkpt>
      <trkpt lat="32.78228" lon="-16.91546">
        <ele>896.086182</ele>
        <time>2013-05-05T08:36:29Z</time>
      </trkpt>
      <trkpt lat="32.78226" lon="-16.9156">
        <ele>896.086182</ele>
        <time>2013-05-05T08:36:40Z</time>
      </trkpt>
      <trkpt lat="32.78226" lon="-16.91563">
        <ele>897.047363</ele>
        <time>2013-05-05T08:36:42Z</time>
      </trkpt>
      <trkpt lat="32.78225" lon="-16.91571">
        <ele>896.566895</ele>
        <time>2013-05-05T08:36:57Z</time>
      </trkpt>
      <trkpt lat="32.78216" lon="-16.91576">
        <ele>896.086182</ele>
        <time>2013-05-05T08:37:15Z</time>
      </trkpt>
      <trkpt lat="32.78216" lon="-16.91579">
        <ele>896.566895</ele>
        <time>2013-05-05T08:37:17Z</time>
      </trkpt>
      <trkpt lat="32.78212" lon="-16.91591">
        <ele>895.605469</ele>
        <time>2013-05-05T08:37:33Z</time>
      </trkpt>
      <trkpt lat="32.78208" lon="-16.91594">
        <ele>896.086182</ele>
        <time>2013-05-05T08:38:06Z</time>
      </trkpt>
      <trkpt lat="32.78206" lon="-16.91598">
        <ele>896.086182</ele>
        <time>2013-05-05T08:38:22Z</time>
      </trkpt>
      <trkpt lat="32.78206" lon="-16.91598">
        <ele>895.605469</ele>
        <time>2013-05-05T08:38:38Z</time>
      </trkpt>
      <trkpt lat="32.78203" lon="-16.91602">
        <ele>896.086182</ele>
        <time>2013-05-05T08:38:58Z</time>
      </trkpt>
      <trkpt lat="32.78201" lon="-16.91603">
        <ele>895.605469</ele>
        <time>2013-05-05T08:39:00Z</time>
      </trkpt>
      <trkpt lat="32.78198" lon="-16.91607">
        <ele>896.086182</ele>
        <time>2013-05-05T08:39:05Z</time>
      </trkpt>
      <trkpt lat="32.78196" lon="-16.91609">
        <ele>895.605469</ele>
        <time>2013-05-05T08:39:07Z</time>
      </trkpt>
      <trkpt lat="32.78187" lon="-16.91621">
        <ele>895.605469</ele>
        <time>2013-05-05T08:39:19Z</time>
      </trkpt>
      <trkpt lat="32.78186" lon="-16.91628">
        <ele>895.605469</ele>
        <time>2013-05-05T08:39:25Z</time>
      </trkpt>
      <trkpt lat="32.78172" lon="-16.9163">
        <ele>895.605469</ele>
        <time>2013-05-05T08:39:35Z</time>
      </trkpt>
      <trkpt lat="32.78159" lon="-16.91627">
        <ele>895.124756</ele>
        <time>2013-05-05T08:39:47Z</time>
      </trkpt>
      <trkpt lat="32.78158" lon="-16.91629">
        <ele>896.566895</ele>
        <time>2013-05-05T08:39:53Z</time>
      </trkpt>
      <trkpt lat="32.78141" lon="-16.91647">
        <ele>895.605469</ele>
        <time>2013-05-05T08:40:09Z</time>
      </trkpt>
      <trkpt lat="32.78135" lon="-16.91658">
        <ele>895.605469</ele>
        <time>2013-05-05T08:40:20Z</time>
      </trkpt>
      <trkpt lat="32.78131" lon="-16.9166">
        <ele>894.163574</ele>
        <time>2013-05-05T08:40:23Z</time>
      </trkpt>
      <trkpt lat="32.78128" lon="-16.91667">
        <ele>895.605469</ele>
        <time>2013-05-05T08:40:29Z</time>
      </trkpt>
      <trkpt lat="32.78129" lon="-16.91698">
        <ele>895.605469</ele>
        <time>2013-05-05T08:40:34Z</time>
      </trkpt>
      <trkpt lat="32.78126" lon="-16.91688">
        <ele>896.086182</ele>
        <time>2013-05-05T08:40:45Z</time>
      </trkpt>
      <trkpt lat="32.78124" lon="-16.91688">
        <ele>896.086182</ele>
        <time>2013-05-05T08:40:49Z</time>
      </trkpt>
      <trkpt lat="32.78121" lon="-16.91703">
        <ele>896.566895</ele>
        <time>2013-05-05T08:40:57Z</time>
      </trkpt>
      <trkpt lat="32.78113" lon="-16.91708">
        <ele>896.566895</ele>
        <time>2013-05-05T08:41:07Z</time>
      </trkpt>
      <trkpt lat="32.78109" lon="-16.91709">
        <ele>897.047363</ele>
        <time>2013-05-05T08:41:15Z</time>
      </trkpt>
      <trkpt lat="32.78093" lon="-16.91711">
        <ele>897.528076</ele>
        <time>2013-05-05T08:41:29Z</time>
      </trkpt>
      <trkpt lat="32.78067" lon="-16.91705">
        <ele>898.008789</ele>
        <time>2013-05-05T08:41:54Z</time>
      </trkpt>
      <trkpt lat="32.78067" lon="-16.91707">
        <ele>892.72168</ele>
        <time>2013-05-05T08:42:06Z</time>
      </trkpt>
      <trkpt lat="32.78068" lon="-16.9171">
        <ele>895.124756</ele>
        <time>2013-05-05T08:42:07Z</time>
      </trkpt>
      <trkpt lat="32.78069" lon="-16.9171">
        <ele>907.141113</ele>
        <time>2013-05-05T08:42:08Z</time>
      </trkpt>
      <trkpt lat="32.78069" lon="-16.91709">
        <ele>892.72168</ele>
        <time>2013-05-05T08:42:09Z</time>
      </trkpt>
      <trkpt lat="32.78078" lon="-16.91724">
        <ele>898.489258</ele>
        <time>2013-05-05T08:42:11Z</time>
      </trkpt>
      <trkpt lat="32.78082" lon="-16.91719">
        <ele>898.489258</ele>
        <time>2013-05-05T08:42:21Z</time>
      </trkpt>
      <trkpt lat="32.78093" lon="-16.91717">
        <ele>898.489258</ele>
        <time>2013-05-05T08:42:33Z</time>
      </trkpt>
      <trkpt lat="32.78097" lon="-16.91719">
        <ele>898.969971</ele>
        <time>2013-05-05T08:42:35Z</time>
      </trkpt>
      <trkpt lat="32.78108" lon="-16.91706">
        <ele>898.489258</ele>
        <time>2013-05-05T08:42:46Z</time>
      </trkpt>
      <trkpt lat="32.78117" lon="-16.91701">
        <ele>898.969971</ele>
        <time>2013-05-05T08:42:55Z</time>
      </trkpt>
      <trkpt lat="32.78121" lon="-16.91696">
        <ele>898.489258</ele>
        <time>2013-05-05T08:43:00Z</time>
      </trkpt>
      <trkpt lat="32.78124" lon="-16.91692">
        <ele>898.969971</ele>
        <time>2013-05-05T08:43:04Z</time>
      </trkpt>
      <trkpt lat="32.78128" lon="-16.91688">
        <ele>898.489258</ele>
        <time>2013-05-05T08:43:08Z</time>
      </trkpt>
      <trkpt lat="32.78134" lon="-16.91681">
        <ele>898.969971</ele>
        <time>2013-05-05T08:43:14Z</time>
      </trkpt>
      <trkpt lat="32.78141" lon="-16.91678">
        <ele>898.489258</ele>
        <time>2013-05-05T08:43:21Z</time>
      </trkpt>
      <trkpt lat="32.78146" lon="-16.91677">
        <ele>899.450684</ele>
        <time>2013-05-05T08:43:26Z</time>
      </trkpt>
      <trkpt lat="32.78153" lon="-16.91683">
        <ele>899.450684</ele>
        <time>2013-05-05T08:43:30Z</time>
      </trkpt>
      <trkpt lat="32.7817" lon="-16.9169">
        <ele>899.450684</ele>
        <time>2013-05-05T08:43:44Z</time>
      </trkpt>
      <trkpt lat="32.78183" lon="-16.91699">
        <ele>899.450684</ele>
        <time>2013-05-05T08:43:52Z</time>
      </trkpt>
      <trkpt lat="32.78201" lon="-16.9171">
        <ele>899.450684</ele>
        <time>2013-05-05T08:44:08Z</time>
      </trkpt>
      <trkpt lat="32.78211" lon="-16.91706">
        <ele>898.969971</ele>
        <time>2013-05-05T08:44:18Z</time>
      </trkpt>
      <trkpt lat="32.78219" lon="-16.91703">
        <ele>899.450684</ele>
        <time>2013-05-05T08:44:26Z</time>
      </trkpt>
      <trkpt lat="32.78229" lon="-16.91703">
        <ele>899.931396</ele>
        <time>2013-05-05T08:44:33Z</time>
      </trkpt>
      <trkpt lat="32.78224" lon="-16.91667">
        <ele>898.969971</ele>
        <time>2013-05-05T08:44:45Z</time>
      </trkpt>
      <trkpt lat="32.78236" lon="-16.91669">
        <ele>899.450684</ele>
        <time>2013-05-05T08:44:53Z</time>
      </trkpt>
      <trkpt lat="32.78241" lon="-16.91675">
        <ele>898.969971</ele>
        <time>2013-05-05T08:44:55Z</time>
      </trkpt>
      <trkpt lat="32.78258" lon="-16.91687">
        <ele>898.969971</ele>
        <time>2013-05-05T08:45:04Z</time>
      </trkpt>
      <trkpt lat="32.78263" lon="-16.91672">
        <ele>899.450684</ele>
        <time>2013-05-05T08:45:12Z</time>
      </trkpt>
      <trkpt lat="32.78276" lon="-16.91672">
        <ele>898.969971</ele>
        <time>2013-05-05T08:45:22Z</time>
      </trkpt>
      <trkpt lat="32.78296" lon="-16.91669">
        <ele>898.489258</ele>
        <time>2013-05-05T08:45:35Z</time>
      </trkpt>
      <trkpt lat="32.78307" lon="-16.91663">
        <ele>898.489258</ele>
        <time>2013-05-05T08:45:46Z</time>
      </trkpt>
      <trkpt lat="32.78313" lon="-16.91668">
        <ele>898.969971</ele>
        <time>2013-05-05T08:45:52Z</time>
      </trkpt>
      <trkpt lat="32.78309" lon="-16.91669">
        <ele>898.489258</ele>
        <time>2013-05-05T08:46:02Z</time>
      </trkpt>
      <trkpt lat="32.78311" lon="-16.9167">
        <ele>898.489258</ele>
        <time>2013-05-05T08:46:08Z</time>
      </trkpt>
      <trkpt lat="32.78314" lon="-16.91673">
        <ele>898.008789</ele>
        <time>2013-05-05T08:46:10Z</time>
      </trkpt>
      <trkpt lat="32.78329" lon="-16.91675">
        <ele>898.969971</ele>
        <time>2013-05-05T08:46:14Z</time>
      </trkpt>
      <trkpt lat="32.78346" lon="-16.91658">
        <ele>899.450684</ele>
        <time>2013-05-05T08:46:25Z</time>
      </trkpt>
      <trkpt lat="32.78359" lon="-16.91634">
        <ele>898.489258</ele>
        <time>2013-05-05T08:46:41Z</time>
      </trkpt>
      <trkpt lat="32.78376" lon="-16.91629">
        <ele>898.489258</ele>
        <time>2013-05-05T08:46:53Z</time>
      </trkpt>
      <trkpt lat="32.78389" lon="-16.91622">
        <ele>898.008789</ele>
        <time>2013-05-05T08:47:04Z</time>
      </trkpt>
      <trkpt lat="32.78404" lon="-16.91614">
        <ele>898.489258</ele>
        <time>2013-05-05T08:47:19Z</time>
      </trkpt>
      <trkpt lat="32.78416" lon="-16.91609">
        <ele>898.489258</ele>
        <time>2013-05-05T08:47:31Z</time>
      </trkpt>
      <trkpt lat="32.78419" lon="-16.91621">
        <ele>898.969971</ele>
        <time>2013-05-05T08:47:45Z</time>
      </trkpt>
      <trkpt lat="32.7842" lon="-16.9164">
        <ele>899.450684</ele>
        <time>2013-05-05T08:47:56Z</time>
      </trkpt>
      <trkpt lat="32.78417" lon="-16.91649">
        <ele>899.450684</ele>
        <time>2013-05-05T08:48:05Z</time>
      </trkpt>
      <trkpt lat="32.78416" lon="-16.91671">
        <ele>898.969971</ele>
        <time>2013-05-05T08:48:19Z</time>
      </trkpt>
      <trkpt lat="32.7842" lon="-16.91681">
        <ele>898.969971</ele>
        <time>2013-05-05T08:48:31Z</time>
      </trkpt>
      <trkpt lat="32.7844" lon="-16.91698">
        <ele>898.969971</ele>
        <time>2013-05-05T08:48:46Z</time>
      </trkpt>
      <trkpt lat="32.78444" lon="-16.91709">
        <ele>898.489258</ele>
        <time>2013-05-05T08:48:55Z</time>
      </trkpt>
      <trkpt lat="32.78446" lon="-16.91711">
        <ele>898.008789</ele>
        <time>2013-05-05T08:48:57Z</time>
      </trkpt>
      <trkpt lat="32.78452" lon="-16.91721">
        <ele>898.008789</ele>
        <time>2013-05-05T08:49:05Z</time>
      </trkpt>
      <trkpt lat="32.78461" lon="-16.91738">
        <ele>898.008789</ele>
        <time>2013-05-05T08:49:21Z</time>
      </trkpt>
      <trkpt lat="32.7846" lon="-16.91754">
        <ele>898.489258</ele>
        <time>2013-05-05T08:49:33Z</time>
      </trkpt>
      <trkpt lat="32.78459" lon="-16.91757">
        <ele>898.489258</ele>
        <time>2013-05-05T08:49:37Z</time>
      </trkpt>
      <trkpt lat="32.78453" lon="-16.91764">
        <ele>898.489258</ele>
        <time>2013-05-05T08:49:50Z</time>
      </trkpt>
      <trkpt lat="32.7844" lon="-16.91772">
        <ele>898.489258</ele>
        <time>2013-05-05T08:50:00Z</time>
      </trkpt>
      <trkpt lat="32.78426" lon="-16.9178">
        <ele>898.489258</ele>
        <time>2013-05-05T08:50:12Z</time>
      </trkpt>
      <trkpt lat="32.78411" lon="-16.91793">
        <ele>898.969971</ele>
        <time>2013-05-05T08:50:24Z</time>
      </trkpt>
      <trkpt lat="32.78407" lon="-16.91802">
        <ele>898.969971</ele>
        <time>2013-05-05T08:50:34Z</time>
      </trkpt>
      <trkpt lat="32.78401" lon="-16.91819">
        <ele>899.450684</ele>
        <time>2013-05-05T08:50:46Z</time>
      </trkpt>
      <trkpt lat="32.78392" lon="-16.91833">
        <ele>899.450684</ele>
        <time>2013-05-05T08:50:58Z</time>
      </trkpt>
      <trkpt lat="32.7838" lon="-16.91841">
        <ele>899.450684</ele>
        <time>2013-05-05T08:51:08Z</time>
      </trkpt>
      <trkpt lat="32.7837" lon="-16.91843">
        <ele>899.931396</ele>
        <time>2013-05-05T08:51:15Z</time>
      </trkpt>
      <trkpt lat="32.78357" lon="-16.91844">
        <ele>899.450684</ele>
        <time>2013-05-05T08:51:28Z</time>
      </trkpt>
      <trkpt lat="32.78353" lon="-16.91855">
        <ele>899.931396</ele>
        <time>2013-05-05T08:51:34Z</time>
      </trkpt>
      <trkpt lat="32.78349" lon="-16.91861">
        <ele>899.450684</ele>
        <time>2013-05-05T08:51:39Z</time>
      </trkpt>
      <trkpt lat="32.78334" lon="-16.91872">
        <ele>899.450684</ele>
        <time>2013-05-05T08:51:51Z</time>
      </trkpt>
      <trkpt lat="32.78322" lon="-16.91878">
        <ele>899.450684</ele>
        <time>2013-05-05T08:52:01Z</time>
      </trkpt>
      <trkpt lat="32.78321" lon="-16.91881">
        <ele>899.450684</ele>
        <time>2013-05-05T08:52:03Z</time>
      </trkpt>
      <trkpt lat="32.78326" lon="-16.919">
        <ele>900.412109</ele>
        <time>2013-05-05T08:52:15Z</time>
      </trkpt>
      <trkpt lat="32.78328" lon="-16.91931">
        <ele>899.931396</ele>
        <time>2013-05-05T08:52:38Z</time>
      </trkpt>
      <trkpt lat="32.78341" lon="-16.9195">
        <ele>900.412109</ele>
        <time>2013-05-05T08:52:50Z</time>
      </trkpt>
      <trkpt lat="32.78341" lon="-16.91952">
        <ele>900.412109</ele>
        <time>2013-05-05T08:52:51Z</time>
      </trkpt>
      <trkpt lat="32.78327" lon="-16.91961">
        <ele>900.412109</ele>
        <time>2013-05-05T08:53:00Z</time>
      </trkpt>
      <trkpt lat="32.7832" lon="-16.91963">
        <ele>899.931396</ele>
        <time>2013-05-05T08:53:05Z</time>
      </trkpt>
      <trkpt lat="32.78307" lon="-16.91962">
        <ele>900.412109</ele>
        <time>2013-05-05T08:53:20Z</time>
      </trkpt>
      <trkpt lat="32.783" lon="-16.91966">
        <ele>900.892578</ele>
        <time>2013-05-05T08:53:26Z</time>
      </trkpt>
      <trkpt lat="32.7829" lon="-16.91968">
        <ele>900.892578</ele>
        <time>2013-05-05T08:53:31Z</time>
      </trkpt>
      <trkpt lat="32.78278" lon="-16.91961">
        <ele>900.892578</ele>
        <time>2013-05-05T08:53:43Z</time>
      </trkpt>
      <trkpt lat="32.7827" lon="-16.91949">
        <ele>901.373291</ele>
        <time>2013-05-05T08:53:57Z</time>
      </trkpt>
      <trkpt lat="32.78268" lon="-16.91947">
        <ele>900.892578</ele>
        <time>2013-05-05T08:53:59Z</time>
      </trkpt>
      <trkpt lat="32.78252" lon="-16.91942">
        <ele>901.373291</ele>
        <time>2013-05-05T08:54:12Z</time>
      </trkpt>
      <trkpt lat="32.78247" lon="-16.91941">
        <ele>901.373291</ele>
        <time>2013-05-05T08:54:15Z</time>
      </trkpt>
      <trkpt lat="32.78238" lon="-16.91943">
        <ele>900.892578</ele>
        <time>2013-05-05T08:54:21Z</time>
      </trkpt>
      <trkpt lat="32.78228" lon="-16.91937">
        <ele>901.373291</ele>
        <time>2013-05-05T08:54:32Z</time>
      </trkpt>
      <trkpt lat="32.78215" lon="-16.91937">
        <ele>901.373291</ele>
        <time>2013-05-05T08:54:43Z</time>
      </trkpt>
      <trkpt lat="32.78213" lon="-16.91941">
        <ele>901.373291</ele>
        <time>2013-05-05T08:54:48Z</time>
      </trkpt>
      <trkpt lat="32.78208" lon="-16.91942">
        <ele>901.373291</ele>
        <time>2013-05-05T08:54:53Z</time>
      </trkpt>
      <trkpt lat="32.78181" lon="-16.91954">
        <ele>900.892578</ele>
        <time>2013-05-05T08:55:16Z</time>
      </trkpt>
      <trkpt lat="32.78175" lon="-16.91961">
        <ele>901.373291</ele>
        <time>2013-05-05T08:55:23Z</time>
      </trkpt>
      <trkpt lat="32.7817" lon="-16.91961">
        <ele>900.892578</ele>
        <time>2013-05-05T08:55:29Z</time>
      </trkpt>
      <trkpt lat="32.78164" lon="-16.9196">
        <ele>900.412109</ele>
        <time>2013-05-05T08:55:35Z</time>
      </trkpt>
      <trkpt lat="32.78153" lon="-16.91959">
        <ele>900.892578</ele>
        <time>2013-05-05T08:55:45Z</time>
      </trkpt>
      <trkpt lat="32.78148" lon="-16.91957">
        <ele>900.892578</ele>
        <time>2013-05-05T08:55:50Z</time>
      </trkpt>
      <trkpt lat="32.78144" lon="-16.91963">
        <ele>900.892578</ele>
        <time>2013-05-05T08:55:59Z</time>
      </trkpt>
      <trkpt lat="32.78128" lon="-16.91993">
        <ele>900.892578</ele>
        <time>2013-05-05T08:56:13Z</time>
      </trkpt>
      <trkpt lat="32.78108" lon="-16.91988">
        <ele>900.892578</ele>
        <time>2013-05-05T08:56:34Z</time>
      </trkpt>
      <trkpt lat="32.781" lon="-16.91993">
        <ele>901.373291</ele>
        <time>2013-05-05T08:56:44Z</time>
      </trkpt>
      <trkpt lat="32.78094" lon="-16.92003">
        <ele>901.373291</ele>
        <time>2013-05-05T08:56:57Z</time>
      </trkpt>
      <trkpt lat="32.78085" lon="-16.9201">
        <ele>901.373291</ele>
        <time>2013-05-05T08:57:08Z</time>
      </trkpt>
      <trkpt lat="32.7808" lon="-16.92016">
        <ele>901.854004</ele>
        <time>2013-05-05T08:57:13Z</time>
      </trkpt>
      <trkpt lat="32.78069" lon="-16.92028">
        <ele>901.373291</ele>
        <time>2013-05-05T08:57:23Z</time>
      </trkpt>
      <trkpt lat="32.78055" lon="-16.92043">
        <ele>901.854004</ele>
        <time>2013-05-05T08:57:35Z</time>
      </trkpt>
      <trkpt lat="32.78048" lon="-16.9205">
        <ele>901.854004</ele>
        <time>2013-05-05T08:57:46Z</time>
      </trkpt>
      <trkpt lat="32.78047" lon="-16.92061">
        <ele>901.854004</ele>
        <time>2013-05-05T08:57:52Z</time>
      </trkpt>
      <trkpt lat="32.78036" lon="-16.92076">
        <ele>901.854004</ele>
        <time>2013-05-05T08:58:05Z</time>
      </trkpt>
      <trkpt lat="32.78034" lon="-16.92077">
        <ele>901.854004</ele>
        <time>2013-05-05T08:58:06Z</time>
      </trkpt>
      <trkpt lat="32.7802" lon="-16.92085">
        <ele>901.854004</ele>
        <time>2013-05-05T08:58:18Z</time>
      </trkpt>
      <trkpt lat="32.78014" lon="-16.92093">
        <ele>901.373291</ele>
        <time>2013-05-05T08:58:26Z</time>
      </trkpt>
      <trkpt lat="32.78001" lon="-16.92098">
        <ele>902.334473</ele>
        <time>2013-05-05T08:58:40Z</time>
      </trkpt>
      <trkpt lat="32.77986" lon="-16.92107">
        <ele>902.815186</ele>
        <time>2013-05-05T08:58:55Z</time>
      </trkpt>
      <trkpt lat="32.77974" lon="-16.92116">
        <ele>902.334473</ele>
        <time>2013-05-05T08:59:08Z</time>
      </trkpt>
      <trkpt lat="32.77973" lon="-16.92119">
        <ele>902.815186</ele>
        <time>2013-05-05T08:59:15Z</time>
      </trkpt>
      <trkpt lat="32.77966" lon="-16.92126">
        <ele>902.815186</ele>
        <time>2013-05-05T08:59:27Z</time>
      </trkpt>
      <trkpt lat="32.77961" lon="-16.92129">
        <ele>902.334473</ele>
        <time>2013-05-05T08:59:34Z</time>
      </trkpt>
      <trkpt lat="32.77945" lon="-16.92134">
        <ele>901.854004</ele>
        <time>2013-05-05T08:59:47Z</time>
      </trkpt>
      <trkpt lat="32.77927" lon="-16.92133">
        <ele>901.854004</ele>
        <time>2013-05-05T09:00:01Z</time>
      </trkpt>
      <trkpt lat="32.7791" lon="-16.92157">
        <ele>901.373291</ele>
        <time>2013-05-05T09:00:24Z</time>
      </trkpt>
      <trkpt lat="32.77905" lon="-16.92172">
        <ele>902.334473</ele>
        <time>2013-05-05T09:00:37Z</time>
      </trkpt>
      <trkpt lat="32.77904" lon="-16.92192">
        <ele>901.854004</ele>
        <time>2013-05-05T09:00:52Z</time>
      </trkpt>
      <trkpt lat="32.77907" lon="-16.92198">
        <ele>901.373291</ele>
        <time>2013-05-05T09:01:08Z</time>
      </trkpt>
      <trkpt lat="32.77898" lon="-16.92197">
        <ele>901.854004</ele>
        <time>2013-05-05T09:01:19Z</time>
      </trkpt>
      <trkpt lat="32.77895" lon="-16.92184">
        <ele>902.815186</ele>
        <time>2013-05-05T09:01:30Z</time>
      </trkpt>
      <trkpt lat="32.77898" lon="-16.92186">
        <ele>902.815186</ele>
        <time>2013-05-05T09:01:42Z</time>
      </trkpt>
      <trkpt lat="32.77899" lon="-16.92192">
        <ele>902.815186</ele>
        <time>2013-05-05T09:01:55Z</time>
      </trkpt>
      <trkpt lat="32.77912" lon="-16.92205">
        <ele>902.815186</ele>
        <time>2013-05-05T09:02:01Z</time>
      </trkpt>
      <trkpt lat="32.77935" lon="-16.92225">
        <ele>903.295898</ele>
        <time>2013-05-05T09:02:13Z</time>
      </trkpt>
      <trkpt lat="32.77932" lon="-16.92216">
        <ele>902.815186</ele>
        <time>2013-05-05T09:02:27Z</time>
      </trkpt>
      <trkpt lat="32.77929" lon="-16.92197">
        <ele>903.295898</ele>
        <time>2013-05-05T09:02:38Z</time>
      </trkpt>
      <trkpt lat="32.77929" lon="-16.92186">
        <ele>902.334473</ele>
        <time>2013-05-05T09:02:48Z</time>
      </trkpt>
      <trkpt lat="32.77938" lon="-16.92175">
        <ele>902.815186</ele>
        <time>2013-05-05T09:03:00Z</time>
      </trkpt>
      <trkpt lat="32.77945" lon="-16.92161">
        <ele>901.854004</ele>
        <time>2013-05-05T09:03:12Z</time>
      </trkpt>
      <trkpt lat="32.77965" lon="-16.92164">
        <ele>902.334473</ele>
        <time>2013-05-05T09:03:25Z</time>
      </trkpt>
      <trkpt lat="32.77975" lon="-16.92161">
        <ele>902.815186</ele>
        <time>2013-05-05T09:03:35Z</time>
      </trkpt>
      <trkpt lat="32.77985" lon="-16.92154">
        <ele>901.854004</ele>
        <time>2013-05-05T09:03:50Z</time>
      </trkpt>
      <trkpt lat="32.78" lon="-16.9215">
        <ele>901.854004</ele>
        <time>2013-05-05T09:04:04Z</time>
      </trkpt>
      <trkpt lat="32.78024" lon="-16.92159">
        <ele>901.373291</ele>
        <time>2013-05-05T09:04:17Z</time>
      </trkpt>
      <trkpt lat="32.78043" lon="-16.92166">
        <ele>901.854004</ele>
        <time>2013-05-05T09:04:28Z</time>
      </trkpt>
      <trkpt lat="32.78062" lon="-16.92174">
        <ele>902.334473</ele>
        <time>2013-05-05T09:04:42Z</time>
      </trkpt>
      <trkpt lat="32.78078" lon="-16.92174">
        <ele>901.854004</ele>
        <time>2013-05-05T09:04:55Z</time>
      </trkpt>
      <trkpt lat="32.78077" lon="-16.92148">
        <ele>901.854004</ele>
        <time>2013-05-05T09:05:01Z</time>
      </trkpt>
      <trkpt lat="32.7809" lon="-16.92137">
        <ele>902.334473</ele>
        <time>2013-05-05T09:05:14Z</time>
      </trkpt>
      <trkpt lat="32.78097" lon="-16.92137">
        <ele>902.815186</ele>
        <time>2013-05-05T09:05:21Z</time>
      </trkpt>
      <trkpt lat="32.7811" lon="-16.92156">
        <ele>901.854004</ele>
        <time>2013-05-05T09:05:26Z</time>
      </trkpt>
      <trkpt lat="32.7813" lon="-16.92158">
        <ele>901.854004</ele>
        <time>2013-05-05T09:05:39Z</time>
      </trkpt>
      <trkpt lat="32.78143" lon="-16.92139">
        <ele>902.815186</ele>
        <time>2013-05-05T09:05:51Z</time>
      </trkpt>
      <trkpt lat="32.78158" lon="-16.92135">
        <ele>902.815186</ele>
        <time>2013-05-05T09:06:03Z</time>
      </trkpt>
      <trkpt lat="32.78166" lon="-16.92128">
        <ele>902.334473</ele>
        <time>2013-05-05T09:06:15Z</time>
      </trkpt>
      <trkpt lat="32.78175" lon="-16.92131">
        <ele>902.334473</ele>
        <time>2013-05-05T09:06:27Z</time>
      </trkpt>
      <trkpt lat="32.78182" lon="-16.92142">
        <ele>901.854004</ele>
        <time>2013-05-05T09:06:39Z</time>
      </trkpt>
      <trkpt lat="32.78177" lon="-16.92155">
        <ele>902.815186</ele>
        <time>2013-05-05T09:06:50Z</time>
      </trkpt>
      <trkpt lat="32.78179" lon="-16.92171">
        <ele>902.815186</ele>
        <time>2013-05-05T09:07:01Z</time>
      </trkpt>
      <trkpt lat="32.78173" lon="-16.92187">
        <ele>902.334473</ele>
        <time>2013-05-05T09:07:13Z</time>
      </trkpt>
      <trkpt lat="32.78167" lon="-16.92203">
        <ele>902.334473</ele>
        <time>2013-05-05T09:07:26Z</time>
      </trkpt>
      <trkpt lat="32.78168" lon="-16.92217">
        <ele>903.295898</ele>
        <time>2013-05-05T09:07:38Z</time>
      </trkpt>
      <trkpt lat="32.7818" lon="-16.92229">
        <ele>903.295898</ele>
        <time>2013-05-05T09:07:53Z</time>
      </trkpt>
      <trkpt lat="32.78201" lon="-16.92232">
        <ele>903.295898</ele>
        <time>2013-05-05T09:08:12Z</time>
      </trkpt>
      <trkpt lat="32.7821" lon="-16.92227">
        <ele>902.815186</ele>
        <time>2013-05-05T09:08:22Z</time>
      </trkpt>
      <trkpt lat="32.7822" lon="-16.92219">
        <ele>902.334473</ele>
        <time>2013-05-05T09:08:34Z</time>
      </trkpt>
      <trkpt lat="32.78227" lon="-16.92214">
        <ele>902.815186</ele>
        <time>2013-05-05T09:08:45Z</time>
      </trkpt>
      <trkpt lat="32.78231" lon="-16.9221">
        <ele>902.815186</ele>
        <time>2013-05-05T09:08:52Z</time>
      </trkpt>
      <trkpt lat="32.78241" lon="-16.92208">
        <ele>903.295898</ele>
        <time>2013-05-05T09:08:58Z</time>
      </trkpt>
      <trkpt lat="32.78251" lon="-16.92213">
        <ele>902.815186</ele>
        <time>2013-05-05T09:09:05Z</time>
      </trkpt>
      <trkpt lat="32.78263" lon="-16.92215">
        <ele>902.815186</ele>
        <time>2013-05-05T09:09:17Z</time>
      </trkpt>
      <trkpt lat="32.78282" lon="-16.92227">
        <ele>902.815186</ele>
        <time>2013-05-05T09:09:31Z</time>
      </trkpt>
      <trkpt lat="32.78291" lon="-16.92237">
        <ele>902.815186</ele>
        <time>2013-05-05T09:09:38Z</time>
      </trkpt>
      <trkpt lat="32.78297" lon="-16.9225">
        <ele>902.815186</ele>
        <time>2013-05-05T09:09:51Z</time>
      </trkpt>
      <trkpt lat="32.78305" lon="-16.92259">
        <ele>902.815186</ele>
        <time>2013-05-05T09:10:01Z</time>
      </trkpt>
      <trkpt lat="32.78299" lon="-16.92276">
        <ele>902.334473</ele>
        <time>2013-05-05T09:10:10Z</time>
      </trkpt>
      <trkpt lat="32.78305" lon="-16.92293">
        <ele>902.334473</ele>
        <time>2013-05-05T09:10:22Z</time>
      </trkpt>
      <trkpt lat="32.78303" lon="-16.92309">
        <ele>902.815186</ele>
        <time>2013-05-05T09:10:33Z</time>
      </trkpt>
      <trkpt lat="32.78304" lon="-16.92318">
        <ele>902.815186</ele>
        <time>2013-05-05T09:10:38Z</time>
      </trkpt>
      <trkpt lat="32.78326" lon="-16.92333">
        <ele>902.815186</ele>
        <time>2013-05-05T09:10:59Z</time>
      </trkpt>
      <trkpt lat="32.78338" lon="-16.92332">
        <ele>902.815186</ele>
        <time>2013-05-05T09:11:10Z</time>
      </trkpt>
      <trkpt lat="32.78334" lon="-16.92346">
        <ele>902.815186</ele>
        <time>2013-05-05T09:11:24Z</time>
      </trkpt>
      <trkpt lat="32.78332" lon="-16.9236">
        <ele>902.815186</ele>
        <time>2013-05-05T09:11:33Z</time>
      </trkpt>
      <trkpt lat="32.78334" lon="-16.92371">
        <ele>903.295898</ele>
        <time>2013-05-05T09:11:44Z</time>
      </trkpt>
      <trkpt lat="32.78338" lon="-16.92373">
        <ele>903.295898</ele>
        <time>2013-05-05T09:11:47Z</time>
      </trkpt>
      <trkpt lat="32.78347" lon="-16.92364">
        <ele>903.295898</ele>
        <time>2013-05-05T09:11:58Z</time>
      </trkpt>
      <trkpt lat="32.78355" lon="-16.92366">
        <ele>903.295898</ele>
        <time>2013-05-05T09:12:05Z</time>
      </trkpt>
      <trkpt lat="32.78366" lon="-16.9236">
        <ele>903.776611</ele>
        <time>2013-05-05T09:12:17Z</time>
      </trkpt>
      <trkpt lat="32.78372" lon="-16.92351">
        <ele>903.295898</ele>
        <time>2013-05-05T09:12:25Z</time>
      </trkpt>
      <trkpt lat="32.78391" lon="-16.92365">
        <ele>903.776611</ele>
        <time>2013-05-05T09:12:35Z</time>
      </trkpt>
      <trkpt lat="32.78395" lon="-16.92362">
        <ele>903.776611</ele>
        <time>2013-05-05T09:12:41Z</time>
      </trkpt>
      <trkpt lat="32.78405" lon="-16.92367">
        <ele>904.257324</ele>
        <time>2013-05-05T09:12:44Z</time>
      </trkpt>
      <trkpt lat="32.78416" lon="-16.92386">
        <ele>904.257324</ele>
        <time>2013-05-05T09:12:53Z</time>
      </trkpt>
      <trkpt lat="32.78414" lon="-16.92384">
        <ele>904.257324</ele>
        <time>2013-05-05T09:13:06Z</time>
      </trkpt>
      <trkpt lat="32.78422" lon="-16.92383">
        <ele>903.295898</ele>
        <time>2013-05-05T09:13:17Z</time>
      </trkpt>
      <trkpt lat="32.78429" lon="-16.92384">
        <ele>904.257324</ele>
        <time>2013-05-05T09:13:22Z</time>
      </trkpt>
      <trkpt lat="32.78438" lon="-16.92363">
        <ele>903.776611</ele>
        <time>2013-05-05T09:13:33Z</time>
      </trkpt>
      <trkpt lat="32.78448" lon="-16.92352">
        <ele>903.776611</ele>
        <time>2013-05-05T09:13:43Z</time>
      </trkpt>
      <trkpt lat="32.78447" lon="-16.92338">
        <ele>905.218506</ele>
        <time>2013-05-05T09:13:52Z</time>
      </trkpt>
      <trkpt lat="32.78462" lon="-16.92324">
        <ele>904.737793</ele>
        <time>2013-05-05T09:14:10Z</time>
      </trkpt>
      <trkpt lat="32.78452" lon="-16.92316">
        <ele>904.257324</ele>
        <time>2013-05-05T09:14:25Z</time>
      </trkpt>
      <trkpt lat="32.78459" lon="-16.92302">
        <ele>905.218506</ele>
        <time>2013-05-05T09:14:38Z</time>
      </trkpt>
      <trkpt lat="32.78481" lon="-16.923">
        <ele>905.218506</ele>
        <time>2013-05-05T09:14:51Z</time>
      </trkpt>
      <trkpt lat="32.78489" lon="-16.92302">
        <ele>905.218506</ele>
        <time>2013-05-05T09:14:55Z</time>
      </trkpt>
      <trkpt lat="32.78486" lon="-16.92294">
        <ele>904.737793</ele>
        <time>2013-05-05T09:15:14Z</time>
      </trkpt>
      <trkpt lat="32.78492" lon="-16.92304">
        <ele>905.218506</ele>
        <time>2013-05-05T09:15:31Z</time>
      </trkpt>
      <trkpt lat="32.78492" lon="-16.92303">
        <ele>904.737793</ele>
        <time>2013-05-05T09:15:39Z</time>
      </trkpt>
      <trkpt lat="32.78484" lon="-16.92295">
        <ele>904.737793</ele>
        <time>2013-05-05T09:15:49Z</time>
      </trkpt>
      <trkpt lat="32.78499" lon="-16.923">
        <ele>904.257324</ele>
        <time>2013-05-05T09:15:59Z</time>
      </trkpt>
      <trkpt lat="32.7849" lon="-16.92297">
        <ele>904.257324</ele>
        <time>2013-05-05T09:16:18Z</time>
      </trkpt>
      <trkpt lat="32.7848" lon="-16.92325">
        <ele>905.218506</ele>
        <time>2013-05-05T09:16:43Z</time>
      </trkpt>
      <trkpt lat="32.78515" lon="-16.92322">
        <ele>904.737793</ele>
        <time>2013-05-05T09:16:54Z</time>
      </trkpt>
      <trkpt lat="32.78518" lon="-16.92339">
        <ele>903.776611</ele>
        <time>2013-05-05T09:17:10Z</time>
      </trkpt>
      <trkpt lat="32.78507" lon="-16.92352">
        <ele>904.257324</ele>
        <time>2013-05-05T09:17:22Z</time>
      </trkpt>
      <trkpt lat="32.785" lon="-16.92402">
        <ele>902.815186</ele>
        <time>2013-05-05T09:17:58Z</time>
      </trkpt>
      <trkpt lat="32.78492" lon="-16.92412">
        <ele>902.815186</ele>
        <time>2013-05-05T09:18:09Z</time>
      </trkpt>
      <trkpt lat="32.78483" lon="-16.92427">
        <ele>902.334473</ele>
        <time>2013-05-05T09:18:21Z</time>
      </trkpt>
      <trkpt lat="32.78481" lon="-16.92431">
        <ele>902.815186</ele>
        <time>2013-05-05T09:18:24Z</time>
      </trkpt>
      <trkpt lat="32.78481" lon="-16.9244">
        <ele>903.295898</ele>
        <time>2013-05-05T09:18:29Z</time>
      </trkpt>
      <trkpt lat="32.78473" lon="-16.92457">
        <ele>903.776611</ele>
        <time>2013-05-05T09:18:45Z</time>
      </trkpt>
      <trkpt lat="32.78467" lon="-16.92475">
        <ele>903.776611</ele>
        <time>2013-05-05T09:18:57Z</time>
      </trkpt>
      <trkpt lat="32.78465" lon="-16.92494">
        <ele>903.295898</ele>
        <time>2013-05-05T09:19:10Z</time>
      </trkpt>
      <trkpt lat="32.78465" lon="-16.92508">
        <ele>903.295898</ele>
        <time>2013-05-05T09:19:21Z</time>
      </trkpt>
      <trkpt lat="32.78462" lon="-16.92518">
        <ele>903.295898</ele>
        <time>2013-05-05T09:19:59Z</time>
      </trkpt>
      <trkpt lat="32.78459" lon="-16.92533">
        <ele>904.257324</ele>
        <time>2013-05-05T09:20:12Z</time>
      </trkpt>
      <trkpt lat="32.78456" lon="-16.92535">
        <ele>903.776611</ele>
        <time>2013-05-05T09:20:33Z</time>
      </trkpt>
    </trkseg>
  </trk>
  <trk>
    <name><![CDATA[ACTIVE LOG 006]]></name>
    <trkseg>
      <trkpt lat="32.78457" lon="-16.92555">
        <ele>903.776611</ele>
        <time>2013-05-05T09:21:04Z</time>
      </trkpt>
    </trkseg>
  </trk>
  <trk>
    <name><![CDATA[ACTIVE LOG 007]]></name>
    <trkseg>
      <trkpt lat="32.78356" lon="-16.92733">
        <ele>902.815186</ele>
        <time>2013-05-05T09:23:57Z</time>
      </trkpt>
      <trkpt lat="32.78357" lon="-16.9272">
        <ele>903.776611</ele>
        <time>2013-05-05T09:24:25Z</time>
      </trkpt>
      <trkpt lat="32.78343" lon="-16.9272">
        <ele>903.295898</ele>
        <time>2013-05-05T09:24:38Z</time>
      </trkpt>
      <trkpt lat="32.78334" lon="-16.92726">
        <ele>903.776611</ele>
        <time>2013-05-05T09:24:50Z</time>
      </trkpt>
      <trkpt lat="32.78331" lon="-16.92728">
        <ele>903.295898</ele>
        <time>2013-05-05T09:24:53Z</time>
      </trkpt>
      <trkpt lat="32.78328" lon="-16.92728">
        <ele>903.776611</ele>
        <time>2013-05-05T09:24:55Z</time>
      </trkpt>
      <trkpt lat="32.78323" lon="-16.92722">
        <ele>902.815186</ele>
        <time>2013-05-05T09:25:02Z</time>
      </trkpt>
      <trkpt lat="32.78316" lon="-16.92714">
        <ele>903.776611</ele>
        <time>2013-05-05T09:25:08Z</time>
      </trkpt>
      <trkpt lat="32.78311" lon="-16.92709">
        <ele>903.295898</ele>
        <time>2013-05-05T09:25:16Z</time>
      </trkpt>
      <trkpt lat="32.7832" lon="-16.92693">
        <ele>903.295898</ele>
        <time>2013-05-05T09:25:27Z</time>
      </trkpt>
      <trkpt lat="32.78308" lon="-16.92693">
        <ele>904.257324</ele>
        <time>2013-05-05T09:25:43Z</time>
      </trkpt>
      <trkpt lat="32.78312" lon="-16.92688">
        <ele>903.776611</ele>
        <time>2013-05-05T09:25:55Z</time>
      </trkpt>
    </trkseg>
  </trk>
  <trk>
    <name><![CDATA[ACTIVE LOG 008]]></name>
    <trkseg>
      <trkpt lat="32.78363" lon="-16.92642">
        <ele>904.257324</ele>
        <time>2013-05-05T09:26:27Z</time>
      </trkpt>
    </trkseg>
  </trk>
  <trk>
    <name><![CDATA[ACTIVE LOG 009]]></name>
    <trkseg>
      <trkpt lat="32.78367" lon="-16.92852">
        <ele>906.179688</ele>
        <time>2013-05-05T09:28:38Z</time>
      </trkpt>
      <trkpt lat="32.78353" lon="-16.92836">
        <ele>905.699219</ele>
        <time>2013-05-05T09:29:02Z</time>
      </trkpt>
    </trkseg>
  </trk>
  <trk>
    <name><![CDATA[ACTIVE LOG 010]]></name>
    <trkseg>
      <trkpt lat="32.7835" lon="-16.92831">
        <ele>906.179688</ele>
        <time>2013-05-05T09:29:11Z</time>
      </trkpt>
    </trkseg>
  </trk>
  <trk>
    <name><![CDATA[ACTIVE LOG 011]]></name>
    <trkseg>
      <trkpt lat="32.7822" lon="-16.92754">
        <ele>906.179688</ele>
        <time>2013-05-05T09:29:23Z</time>
      </trkpt>
      <trkpt lat="32.78223" lon="-16.92761">
        <ele>904.257324</ele>
        <time>2013-05-05T09:29:39Z</time>
      </trkpt>
      <trkpt lat="32.78221" lon="-16.92765">
        <ele>903.776611</ele>
        <time>2013-05-05T09:29:47Z</time>
      </trkpt>
      <trkpt lat="32.78218" lon="-16.92772">
        <ele>904.257324</ele>
        <time>2013-05-05T09:29:53Z</time>
      </trkpt>
      <trkpt lat="32.78209" lon="-16.92777">
        <ele>905.699219</ele>
        <time>2013-05-05T09:30:07Z</time>
      </trkpt>
      <trkpt lat="32.78217" lon="-16.92785">
        <ele>905.699219</ele>
        <time>2013-05-05T09:30:22Z</time>
      </trkpt>
      <trkpt lat="32.78203" lon="-16.9279">
        <ele>906.179688</ele>
        <time>2013-05-05T09:30:38Z</time>
      </trkpt>
      <trkpt lat="32.78196" lon="-16.92796">
        <ele>905.699219</ele>
        <time>2013-05-05T09:30:48Z</time>
      </trkpt>
      <trkpt lat="32.78195" lon="-16.92807">
        <ele>906.6604</ele>
        <time>2013-05-05T09:30:56Z</time>
      </trkpt>
      <trkpt lat="32.78187" lon="-16.92827">
        <ele>906.6604</ele>
        <time>2013-05-05T09:31:10Z</time>
      </trkpt>
      <trkpt lat="32.78187" lon="-16.9283">
        <ele>906.179688</ele>
        <time>2013-05-05T09:31:12Z</time>
      </trkpt>
      <trkpt lat="32.78186" lon="-16.92836">
        <ele>906.179688</ele>
        <time>2013-05-05T09:31:16Z</time>
      </trkpt>
      <trkpt lat="32.78188" lon="-16.92853">
        <ele>905.699219</ele>
        <time>2013-05-05T09:31:27Z</time>
      </trkpt>
      <trkpt lat="32.78175" lon="-16.9286">
        <ele>905.699219</ele>
        <time>2013-05-05T09:31:38Z</time>
      </trkpt>
      <trkpt lat="32.78169" lon="-16.9287">
        <ele>905.699219</ele>
        <time>2013-05-05T09:31:50Z</time>
      </trkpt>
      <trkpt lat="32.78171" lon="-16.92893">
        <ele>906.179688</ele>
        <time>2013-05-05T09:32:10Z</time>
      </trkpt>
      <trkpt lat="32.78174" lon="-16.92907">
        <ele>906.6604</ele>
        <time>2013-05-05T09:32:25Z</time>
      </trkpt>
      <trkpt lat="32.7817" lon="-16.92917">
        <ele>906.179688</ele>
        <time>2013-05-05T09:32:34Z</time>
      </trkpt>
      <trkpt lat="32.78165" lon="-16.92923">
        <ele>906.6604</ele>
        <time>2013-05-05T09:32:39Z</time>
      </trkpt>
      <trkpt lat="32.78159" lon="-16.92934">
        <ele>906.6604</ele>
        <time>2013-05-05T09:32:51Z</time>
      </trkpt>
      <trkpt lat="32.78152" lon="-16.92943">
        <ele>906.179688</ele>
        <time>2013-05-05T09:33:00Z</time>
      </trkpt>
      <trkpt lat="32.78149" lon="-16.92942">
        <ele>906.179688</ele>
        <time>2013-05-05T09:33:03Z</time>
      </trkpt>
      <trkpt lat="32.7815" lon="-16.92934">
        <ele>906.179688</ele>
        <time>2013-05-05T09:33:07Z</time>
      </trkpt>
      <trkpt lat="32.78135" lon="-16.92915">
        <ele>906.179688</ele>
        <time>2013-05-05T09:33:18Z</time>
      </trkpt>
      <trkpt lat="32.78159" lon="-16.92983">
        <ele>906.179688</ele>
        <time>2013-05-05T09:33:33Z</time>
      </trkpt>
      <trkpt lat="32.78151" lon="-16.92993">
        <ele>906.179688</ele>
        <time>2013-05-05T09:33:43Z</time>
      </trkpt>
      <trkpt lat="32.78145" lon="-16.93007">
        <ele>906.179688</ele>
        <time>2013-05-05T09:33:56Z</time>
      </trkpt>
      <trkpt lat="32.78127" lon="-16.93014">
        <ele>906.6604</ele>
        <time>2013-05-05T09:34:06Z</time>
      </trkpt>
      <trkpt lat="32.78126" lon="-16.93027">
        <ele>906.6604</ele>
        <time>2013-05-05T09:34:17Z</time>
      </trkpt>
      <trkpt lat="32.78129" lon="-16.9303">
        <ele>906.179688</ele>
        <time>2013-05-05T09:34:19Z</time>
      </trkpt>
      <trkpt lat="32.78117" lon="-16.93042">
        <ele>906.179688</ele>
        <time>2013-05-05T09:34:30Z</time>
      </trkpt>
      <trkpt lat="32.78105" lon="-16.93051">
        <ele>906.6604</ele>
        <time>2013-05-05T09:34:47Z</time>
      </trkpt>
      <trkpt lat="32.78085" lon="-16.93065">
        <ele>905.699219</ele>
        <time>2013-05-05T09:35:05Z</time>
      </trkpt>
      <trkpt lat="32.78074" lon="-16.93059">
        <ele>905.218506</ele>
        <time>2013-05-05T09:35:20Z</time>
      </trkpt>
      <trkpt lat="32.78072" lon="-16.93062">
        <ele>905.699219</ele>
        <time>2013-05-05T09:35:35Z</time>
      </trkpt>
      <trkpt lat="32.78078" lon="-16.93077">
        <ele>905.218506</ele>
        <time>2013-05-05T09:35:52Z</time>
      </trkpt>
    </trkseg>
  </trk>
  <trk>
    <name><![CDATA[ACTIVE LOG 012]]></name>
    <trkseg>
      <trkpt lat="32.78088" lon="-16.93091">
        <ele>905.218506</ele>
        <time>2013-05-05T09:36:15Z</time>
      </trkpt>
    </trkseg>
  </trk>
  <trk>
    <name><![CDATA[ACTIVE LOG 013]]></name>
    <trkseg>
      <trkpt lat="32.78043" lon="-16.93108">
        <ele>905.699219</ele>
        <time>2013-05-05T09:37:03Z</time>
      </trkpt>
      <trkpt lat="32.78035" lon="-16.93109">
        <ele>906.179688</ele>
        <time>2013-05-05T09:37:05Z</time>
      </trkpt>
      <trkpt lat="32.78014" lon="-16.9312">
        <ele>905.699219</ele>
        <time>2013-05-05T09:37:18Z</time>
      </trkpt>
      <trkpt lat="32.7802" lon="-16.9313">
        <ele>905.699219</ele>
        <time>2013-05-05T09:37:28Z</time>
      </trkpt>
    </trkseg>
  </trk>
  <trk>
    <name><![CDATA[ACTIVE LOG 014]]></name>
    <trkseg>
      <trkpt lat="32.78037" lon="-16.9315">
        <ele>905.699219</ele>
        <time>2013-05-05T09:37:58Z</time>
      </trkpt>
    </trkseg>
  </trk>
  <trk>
    <name><![CDATA[ACTIVE LOG 015]]></name>
    <trkseg>
      <trkpt lat="32.78048" lon="-16.93192">
        <ele>906.179688</ele>
        <time>2013-05-05T09:38:23Z</time>
      </trkpt>
      <trkpt lat="32.78071" lon="-16.93218">
        <ele>906.179688</ele>
        <time>2013-05-05T09:38:54Z</time>
      </trkpt>
      <trkpt lat="32.78074" lon="-16.93221">
        <ele>906.6604</ele>
        <time>2013-05-05T09:38:58Z</time>
      </trkpt>
      <trkpt lat="32.77983" lon="-16.93191">
        <ele>907.141113</ele>
        <time>2013-05-05T09:39:03Z</time>
      </trkpt>
      <trkpt lat="32.77973" lon="-16.93198">
        <ele>906.179688</ele>
        <time>2013-05-05T09:39:07Z</time>
      </trkpt>
      <trkpt lat="32.77956" lon="-16.93202">
        <ele>906.179688</ele>
        <time>2013-05-05T09:39:18Z</time>
      </trkpt>
      <trkpt lat="32.77963" lon="-16.93217">
        <ele>905.699219</ele>
        <time>2013-05-05T09:39:29Z</time>
      </trkpt>
      <trkpt lat="32.7796" lon="-16.93221">
        <ele>906.179688</ele>
        <time>2013-05-05T09:39:32Z</time>
      </trkpt>
      <trkpt lat="32.77979" lon="-16.93244">
        <ele>906.179688</ele>
        <time>2013-05-05T09:39:43Z</time>
      </trkpt>
      <trkpt lat="32.77994" lon="-16.93265">
        <ele>906.179688</ele>
        <time>2013-05-05T09:39:51Z</time>
      </trkpt>
      <trkpt lat="32.77992" lon="-16.9327">
        <ele>906.6604</ele>
        <time>2013-05-05T09:39:57Z</time>
      </trkpt>
      <trkpt lat="32.77974" lon="-16.93276">
        <ele>906.6604</ele>
        <time>2013-05-05T09:40:08Z</time>
      </trkpt>
      <trkpt lat="32.77976" lon="-16.93294">
        <ele>906.6604</ele>
        <time>2013-05-05T09:40:20Z</time>
      </trkpt>
      <trkpt lat="32.77971" lon="-16.93303">
        <ele>906.6604</ele>
        <time>2013-05-05T09:40:32Z</time>
      </trkpt>
      <trkpt lat="32.77966" lon="-16.93317">
        <ele>906.6604</ele>
        <time>2013-05-05T09:40:42Z</time>
      </trkpt>
      <trkpt lat="32.7796" lon="-16.9333">
        <ele>906.179688</ele>
        <time>2013-05-05T09:40:53Z</time>
      </trkpt>
      <trkpt lat="32.77957" lon="-16.93335">
        <ele>906.6604</ele>
        <time>2013-05-05T09:40:57Z</time>
      </trkpt>
      <trkpt lat="32.77946" lon="-16.93347">
        <ele>906.6604</ele>
        <time>2013-05-05T09:41:09Z</time>
      </trkpt>
      <trkpt lat="32.77949" lon="-16.93352">
        <ele>906.6604</ele>
        <time>2013-05-05T09:41:11Z</time>
      </trkpt>
      <trkpt lat="32.77947" lon="-16.9336">
        <ele>906.179688</ele>
        <time>2013-05-05T09:41:16Z</time>
      </trkpt>
      <trkpt lat="32.77939" lon="-16.93373">
        <ele>907.621826</ele>
        <time>2013-05-05T09:41:28Z</time>
      </trkpt>
      <trkpt lat="32.77937" lon="-16.93381">
        <ele>906.6604</ele>
        <time>2013-05-05T09:41:41Z</time>
      </trkpt>
      <trkpt lat="32.77928" lon="-16.93381">
        <ele>906.6604</ele>
        <time>2013-05-05T09:41:51Z</time>
      </trkpt>
    </trkseg>
  </trk>
  <trk>
    <name><![CDATA[ACTIVE LOG 016]]></name>
    <trkseg>
      <trkpt lat="32.77906" lon="-16.93368">
        <ele>906.179688</ele>
        <time>2013-05-05T09:42:19Z</time>
      </trkpt>
    </trkseg>
  </trk>
  <trk>
    <name><![CDATA[ACTIVE LOG 017]]></name>
    <trkseg>
      <trkpt lat="32.77895" lon="-16.93404">
        <ele>906.179688</ele>
        <time>2013-05-05T09:42:22Z</time>
      </trkpt>
      <trkpt lat="32.77894" lon="-16.93404">
        <ele>905.699219</ele>
        <time>2013-05-05T09:42:23Z</time>
      </trkpt>
      <trkpt lat="32.77887" lon="-16.93412">
        <ele>905.699219</ele>
        <time>2013-05-05T09:42:34Z</time>
      </trkpt>
      <trkpt lat="32.7788" lon="-16.93406">
        <ele>906.179688</ele>
        <time>2013-05-05T09:42:43Z</time>
      </trkpt>
      <trkpt lat="32.77872" lon="-16.93407">
        <ele>905.699219</ele>
        <time>2013-05-05T09:42:49Z</time>
      </trkpt>
      <trkpt lat="32.77861" lon="-16.93419">
        <ele>905.699219</ele>
        <time>2013-05-05T09:42:59Z</time>
      </trkpt>
      <trkpt lat="32.77849" lon="-16.9342">
        <ele>905.699219</ele>
        <time>2013-05-05T09:43:08Z</time>
      </trkpt>
      <trkpt lat="32.77839" lon="-16.93422">
        <ele>905.699219</ele>
        <time>2013-05-05T09:43:19Z</time>
      </trkpt>
      <trkpt lat="32.77823" lon="-16.93428">
        <ele>905.699219</ele>
        <time>2013-05-05T09:43:31Z</time>
      </trkpt>
      <trkpt lat="32.77805" lon="-16.93437">
        <ele>906.179688</ele>
        <time>2013-05-05T09:43:45Z</time>
      </trkpt>
      <trkpt lat="32.77793" lon="-16.93439">
        <ele>905.699219</ele>
        <time>2013-05-05T09:43:55Z</time>
      </trkpt>
      <trkpt lat="32.77784" lon="-16.93437">
        <ele>905.699219</ele>
        <time>2013-05-05T09:44:05Z</time>
      </trkpt>
      <trkpt lat="32.77771" lon="-16.93444">
        <ele>905.218506</ele>
        <time>2013-05-05T09:44:15Z</time>
      </trkpt>
      <trkpt lat="32.77761" lon="-16.9344">
        <ele>905.699219</ele>
        <time>2013-05-05T09:44:26Z</time>
      </trkpt>
      <trkpt lat="32.77752" lon="-16.93435">
        <ele>905.699219</ele>
        <time>2013-05-05T09:44:31Z</time>
      </trkpt>
      <trkpt lat="32.77749" lon="-16.93406">
        <ele>905.699219</ele>
        <time>2013-05-05T09:44:45Z</time>
      </trkpt>
    </trkseg>
  </trk>
  <trk>
    <name><![CDATA[ACTIVE LOG 018]]></name>
    <trkseg>
      <trkpt lat="32.77745" lon="-16.93364">
        <ele>906.179688</ele>
        <time>2013-05-05T09:45:09Z</time>
      </trkpt>
    </trkseg>
  </trk>
  <trk>
    <name><![CDATA[ACTIVE LOG 019]]></name>
    <trkseg>
      <trkpt lat="32.77721" lon="-16.93555">
        <ele>907.141113</ele>
        <time>2013-05-05T09:46:56Z</time>
      </trkpt>
      <trkpt lat="32.77698" lon="-16.93561">
        <ele>907.621826</ele>
        <time>2013-05-05T09:47:10Z</time>
      </trkpt>
    </trkseg>
  </trk>
  <trk>
    <name><![CDATA[ACTIVE LOG 020]]></name>
    <trkseg>
      <trkpt lat="32.77701" lon="-16.93572">
        <ele>907.621826</ele>
        <time>2013-05-05T09:47:35Z</time>
      </trkpt>
    </trkseg>
  </trk>
  <trk>
    <name><![CDATA[ACTIVE LOG 021]]></name>
    <trkseg>
      <trkpt lat="32.77633" lon="-16.93621">
        <ele>907.621826</ele>
        <time>2013-05-05T09:48:19Z</time>
      </trkpt>
      <trkpt lat="32.77648" lon="-16.93632">
        <ele>908.102783</ele>
        <time>2013-05-05T09:48:47Z</time>
      </trkpt>
      <trkpt lat="32.77619" lon="-16.9364">
        <ele>908.102783</ele>
        <time>2013-05-05T09:49:00Z</time>
      </trkpt>
      <trkpt lat="32.77608" lon="-16.9365">
        <ele>908.102783</ele>
        <time>2013-05-05T09:49:14Z</time>
      </trkpt>
      <trkpt lat="32.77593" lon="-16.93651">
        <ele>908.583252</ele>
        <time>2013-05-05T09:49:30Z</time>
      </trkpt>
      <trkpt lat="32.77592" lon="-16.93644">
        <ele>908.583252</ele>
        <time>2013-05-05T09:49:38Z</time>
      </trkpt>
      <trkpt lat="32.77599" lon="-16.93598">
        <ele>909.063965</ele>
        <time>2013-05-05T09:49:58Z</time>
      </trkpt>
    </trkseg>
  </trk>
  <trk>
    <name><![CDATA[ACTIVE LOG 022]]></name>
    <trkseg>
      <trkpt lat="32.77614" lon="-16.93558">
        <ele>909.063965</ele>
        <time>2013-05-05T09:50:17Z</time>
      </trkpt>
    </trkseg>
  </trk>
  <trk>
    <name><![CDATA[ACTIVE LOG 023]]></name>
    <trkseg>
      <trkpt lat="32.77526" lon="-16.93542">
        <ele>909.063965</ele>
        <time>2013-05-05T09:51:26Z</time>
      </trkpt>
      <trkpt lat="32.77518" lon="-16.9354">
        <ele>909.063965</ele>
        <time>2013-05-05T09:51:32Z</time>
      </trkpt>
      <trkpt lat="32.77542" lon="-16.93625">
        <ele>909.063965</ele>
        <time>2013-05-05T09:51:51Z</time>
      </trkpt>
    </trkseg>
  </trk>
  <trk>
    <name><![CDATA[ACTIVE LOG 024]]></name>
    <trkseg>
      <trkpt lat="32.77563" lon="-16.93674">
        <ele>910.025146</ele>
        <time>2013-05-05T09:52:06Z</time>
      </trkpt>
      <trkpt lat="32.77563" lon="-16.93674">
        <ele>913.389893</ele>
        <time>2013-05-05T09:52:21Z</time>
      </trkpt>
      <trkpt lat="32.77563" lon="-16.93674">
        <ele>916.754395</ele>
        <time>2013-05-05T09:52:47Z</time>
      </trkpt>
    </trkseg>
  </trk>
  <trk>
    <name><![CDATA[ACTIVE LOG 025]]></name>
    <trkseg>
      <trkpt lat="32.7749" lon="-16.93534">
        <ele>917.235107</ele>
        <time>2013-05-05T09:52:54Z</time>
      </trkpt>
      <trkpt lat="32.77485" lon="-16.93536">
        <ele>917.715576</ele>
        <time>2013-05-05T09:53:00Z</time>
      </trkpt>
      <trkpt lat="32.77479" lon="-16.93534">
        <ele>917.715576</ele>
        <time>2013-05-05T09:53:04Z</time>
      </trkpt>
      <trkpt lat="32.77493" lon="-16.93497">
        <ele>916.754395</ele>
        <time>2013-05-05T09:53:13Z</time>
      </trkpt>
      <trkpt lat="32.77493" lon="-16.93502">
        <ele>916.754395</ele>
        <time>2013-05-05T09:53:39Z</time>
      </trkpt>
      <trkpt lat="32.77489" lon="-16.93505">
        <ele>918.196289</ele>
        <time>2013-05-05T09:53:52Z</time>
      </trkpt>
      <trkpt lat="32.77466" lon="-16.93541">
        <ele>919.638428</ele>
        <time>2013-05-05T09:54:18Z</time>
      </trkpt>
      <trkpt lat="32.77463" lon="-16.93548">
        <ele>920.599609</ele>
        <time>2013-05-05T09:54:21Z</time>
      </trkpt>
      <trkpt lat="32.7744" lon="-16.93541">
        <ele>921.560791</ele>
        <time>2013-05-05T09:54:35Z</time>
      </trkpt>
      <trkpt lat="32.77442" lon="-16.93527">
        <ele>922.041504</ele>
        <time>2013-05-05T09:54:44Z</time>
      </trkpt>
      <trkpt lat="32.77445" lon="-16.93515">
        <ele>923.00293</ele>
        <time>2013-05-05T09:54:57Z</time>
      </trkpt>
      <trkpt lat="32.77446" lon="-16.93509">
        <ele>923.483643</ele>
        <time>2013-05-05T09:54:59Z</time>
      </trkpt>
      <trkpt lat="32.77446" lon="-16.93516">
        <ele>923.964111</ele>
        <time>2013-05-05T09:55:09Z</time>
      </trkpt>
      <trkpt lat="32.77449" lon="-16.93521">
        <ele>925.886963</ele>
        <time>2013-05-05T09:55:18Z</time>
      </trkpt>
      <trkpt lat="32.77452" lon="-16.93523">
        <ele>927.329102</ele>
        <time>2013-05-05T09:55:28Z</time>
      </trkpt>
      <trkpt lat="32.7746" lon="-16.9352">
        <ele>927.80957</ele>
        <time>2013-05-05T09:55:48Z</time>
      </trkpt>
      <trkpt lat="32.77489" lon="-16.93524">
        <ele>928.290283</ele>
        <time>2013-05-05T09:56:19Z</time>
      </trkpt>
      <trkpt lat="32.7749" lon="-16.93534">
        <ele>927.80957</ele>
        <time>2013-05-05T09:56:22Z</time>
      </trkpt>
      <trkpt lat="32.77499" lon="-16.93544">
        <ele>927.329102</ele>
        <time>2013-05-05T09:56:32Z</time>
      </trkpt>
      <trkpt lat="32.77498" lon="-16.93543">
        <ele>927.329102</ele>
        <time>2013-05-05T09:56:34Z</time>
      </trkpt>
      <trkpt lat="32.77506" lon="-16.93538">
        <ele>927.329102</ele>
        <time>2013-05-05T09:56:49Z</time>
      </trkpt>
      <trkpt lat="32.77509" lon="-16.93538">
        <ele>926.848389</ele>
        <time>2013-05-05T09:57:00Z</time>
      </trkpt>
      <trkpt lat="32.7751" lon="-16.93539">
        <ele>926.367676</ele>
        <time>2013-05-05T09:57:11Z</time>
      </trkpt>
      <trkpt lat="32.77512" lon="-16.93581">
        <ele>929.732178</ele>
        <time>2013-05-05T09:57:36Z</time>
      </trkpt>
      <trkpt lat="32.7751" lon="-16.93572">
        <ele>931.174316</ele>
        <time>2013-05-05T09:57:52Z</time>
      </trkpt>
      <trkpt lat="32.77489" lon="-16.93575">
        <ele>931.654785</ele>
        <time>2013-05-05T09:58:05Z</time>
      </trkpt>
      <trkpt lat="32.77492" lon="-16.93606">
        <ele>934.058105</ele>
        <time>2013-05-05T09:58:37Z</time>
      </trkpt>
      <trkpt lat="32.77496" lon="-16.93616">
        <ele>934.058105</ele>
        <time>2013-05-05T09:58:50Z</time>
      </trkpt>
      <trkpt lat="32.77501" lon="-16.93622">
        <ele>934.538818</ele>
        <time>2013-05-05T09:59:04Z</time>
      </trkpt>
      <trkpt lat="32.77497" lon="-16.9363">
        <ele>935.019531</ele>
        <time>2013-05-05T09:59:31Z</time>
      </trkpt>
    </trkseg>
  </trk>
  <trk>
    <name><![CDATA[ACTIVE LOG 026]]></name>
    <trkseg>
      <trkpt lat="32.77498" lon="-16.93626">
        <ele>935.5</ele>
        <time>2013-05-05T09:59:55Z</time>
      </trkpt>
      <trkpt lat="32.77498" lon="-16.93626">
        <ele>932.616211</ele>
        <time>2013-05-05T10:00:23Z</time>
      </trkpt>
    </trkseg>
  </trk>
  <trk>
    <name><![CDATA[ACTIVE LOG 027]]></name>
    <trkseg>
      <trkpt lat="32.77526" lon="-16.93645">
        <ele>930.212891</ele>
        <time>2013-05-05T10:01:46Z</time>
      </trkpt>
    </trkseg>
  </trk>
  <trk>
    <name><![CDATA[ACTIVE LOG 028]]></name>
    <trkseg>
      <trkpt lat="32.77528" lon="-16.93676">
        <ele>930.693604</ele>
        <time>2013-05-05T10:02:27Z</time>
      </trkpt>
    </trkseg>
  </trk>
  <trk>
    <name><![CDATA[ACTIVE LOG 029]]></name>
    <trkseg>
      <trkpt lat="32.77546" lon="-16.9374">
        <ele>931.174316</ele>
        <time>2013-05-05T10:04:08Z</time>
      </trkpt>
      <trkpt lat="32.77546" lon="-16.93753">
        <ele>931.174316</ele>
        <time>2013-05-05T10:04:19Z</time>
      </trkpt>
      <trkpt lat="32.77554" lon="-16.93774">
        <ele>931.174316</ele>
        <time>2013-05-05T10:04:35Z</time>
      </trkpt>
      <trkpt lat="32.77552" lon="-16.93762">
        <ele>930.693604</ele>
        <time>2013-05-05T10:04:51Z</time>
      </trkpt>
      <trkpt lat="32.77571" lon="-16.93763">
        <ele>932.135498</ele>
        <time>2013-05-05T10:05:02Z</time>
      </trkpt>
      <trkpt lat="32.77594" lon="-16.93761">
        <ele>930.693604</ele>
        <time>2013-05-05T10:05:13Z</time>
      </trkpt>
      <trkpt lat="32.77599" lon="-16.93739">
        <ele>930.693604</ele>
        <time>2013-05-05T10:05:31Z</time>
      </trkpt>
      <trkpt lat="32.77601" lon="-16.93739">
        <ele>930.693604</ele>
        <time>2013-05-05T10:05:32Z</time>
      </trkpt>
      <trkpt lat="32.77619" lon="-16.93717">
        <ele>930.693604</ele>
        <time>2013-05-05T10:05:43Z</time>
      </trkpt>
      <trkpt lat="32.77632" lon="-16.93662">
        <ele>931.654785</ele>
        <time>2013-05-05T10:05:52Z</time>
      </trkpt>
      <trkpt lat="32.77632" lon="-16.93629">
        <ele>931.654785</ele>
        <time>2013-05-05T10:06:03Z</time>
      </trkpt>
      <trkpt lat="32.77635" lon="-16.9363">
        <ele>932.135498</ele>
        <time>2013-05-05T10:06:22Z</time>
      </trkpt>
      <trkpt lat="32.77657" lon="-16.93626">
        <ele>932.616211</ele>
        <time>2013-05-05T10:06:33Z</time>
      </trkpt>
      <trkpt lat="32.77668" lon="-16.93625">
        <ele>932.135498</ele>
        <time>2013-05-05T10:06:44Z</time>
      </trkpt>
      <trkpt lat="32.77686" lon="-16.93629">
        <ele>932.135498</ele>
        <time>2013-05-05T10:06:54Z</time>
      </trkpt>
      <trkpt lat="32.77676" lon="-16.93627">
        <ele>931.654785</ele>
        <time>2013-05-05T10:07:23Z</time>
      </trkpt>
      <trkpt lat="32.77675" lon="-16.93626">
        <ele>932.135498</ele>
        <time>2013-05-05T10:07:26Z</time>
      </trkpt>
      <trkpt lat="32.77667" lon="-16.93624">
        <ele>931.654785</ele>
        <time>2013-05-05T10:07:39Z</time>
      </trkpt>
      <trkpt lat="32.77682" lon="-16.93605">
        <ele>931.654785</ele>
        <time>2013-05-05T10:07:55Z</time>
      </trkpt>
      <trkpt lat="32.77678" lon="-16.93608">
        <ele>932.135498</ele>
        <time>2013-05-05T10:07:59Z</time>
      </trkpt>
      <trkpt lat="32.77679" lon="-16.93607">
        <ele>931.654785</ele>
        <time>2013-05-05T10:08:12Z</time>
      </trkpt>
      <trkpt lat="32.77707" lon="-16.9359">
        <ele>932.135498</ele>
        <time>2013-05-05T10:08:46Z</time>
      </trkpt>
      <trkpt lat="32.77678" lon="-16.93584">
        <ele>931.654785</ele>
        <time>2013-05-05T10:09:04Z</time>
      </trkpt>
      <trkpt lat="32.77703" lon="-16.93573">
        <ele>932.616211</ele>
        <time>2013-05-05T10:09:16Z</time>
      </trkpt>
      <trkpt lat="32.7771" lon="-16.93567">
        <ele>932.135498</ele>
        <time>2013-05-05T10:09:28Z</time>
      </trkpt>
      <trkpt lat="32.77724" lon="-16.93557">
        <ele>933.09668</ele>
        <time>2013-05-05T10:09:39Z</time>
      </trkpt>
      <trkpt lat="32.77723" lon="-16.93556">
        <ele>933.09668</ele>
        <time>2013-05-05T10:09:40Z</time>
      </trkpt>
      <trkpt lat="32.77729" lon="-16.93556">
        <ele>933.09668</ele>
        <time>2013-05-05T10:09:56Z</time>
      </trkpt>
      <trkpt lat="32.77732" lon="-16.93555">
        <ele>933.09668</ele>
        <time>2013-05-05T10:10:11Z</time>
      </trkpt>
      <trkpt lat="32.77732" lon="-16.93554">
        <ele>933.577393</ele>
        <time>2013-05-05T10:10:18Z</time>
      </trkpt>
      <trkpt lat="32.77713" lon="-16.93536">
        <ele>933.09668</ele>
        <time>2013-05-05T10:10:31Z</time>
      </trkpt>
      <trkpt lat="32.77715" lon="-16.93521">
        <ele>933.09668</ele>
        <time>2013-05-05T10:10:41Z</time>
      </trkpt>
      <trkpt lat="32.77715" lon="-16.9351">
        <ele>932.616211</ele>
        <time>2013-05-05T10:10:52Z</time>
      </trkpt>
      <trkpt lat="32.77718" lon="-16.93496">
        <ele>932.135498</ele>
        <time>2013-05-05T10:11:05Z</time>
      </trkpt>
      <trkpt lat="32.77719" lon="-16.93485">
        <ele>932.135498</ele>
        <time>2013-05-05T10:11:16Z</time>
      </trkpt>
    </trkseg>
  </trk>
  <trk>
    <name><![CDATA[ACTIVE LOG 030]]></name>
    <trkseg>
      <trkpt lat="32.77699" lon="-16.9349">
        <ele>932.616211</ele>
        <time>2013-05-05T10:11:44Z</time>
      </trkpt>
    </trkseg>
  </trk>
  <trk>
    <name><![CDATA[ACTIVE LOG 031]]></name>
    <trkseg>
      <trkpt lat="32.77724" lon="-16.93448">
        <ele>932.135498</ele>
        <time>2013-05-05T10:12:04Z</time>
      </trkpt>
    </trkseg>
  </trk>
  <trk>
    <name><![CDATA[ACTIVE LOG 032]]></name>
    <trkseg>
      <trkpt lat="32.77731" lon="-16.93463">
        <ele>932.135498</ele>
        <time>2013-05-05T10:12:38Z</time>
      </trkpt>
    </trkseg>
  </trk>
  <trk>
    <name><![CDATA[ACTIVE LOG 033]]></name>
    <trkseg>
      <trkpt lat="32.77741" lon="-16.93442">
        <ele>932.616211</ele>
        <time>2013-05-05T10:12:42Z</time>
      </trkpt>
      <trkpt lat="32.77742" lon="-16.93446">
        <ele>932.616211</ele>
        <time>2013-05-05T10:12:45Z</time>
      </trkpt>
      <trkpt lat="32.77741" lon="-16.9347">
        <ele>932.135498</ele>
        <time>2013-05-05T10:12:57Z</time>
      </trkpt>
      <trkpt lat="32.77759" lon="-16.93467">
        <ele>933.09668</ele>
        <time>2013-05-05T10:13:14Z</time>
      </trkpt>
      <trkpt lat="32.77771" lon="-16.93459">
        <ele>932.135498</ele>
        <time>2013-05-05T10:13:23Z</time>
      </trkpt>
      <trkpt lat="32.7779" lon="-16.93443">
        <ele>932.616211</ele>
        <time>2013-05-05T10:13:38Z</time>
      </trkpt>
      <trkpt lat="32.77796" lon="-16.9344">
        <ele>932.135498</ele>
        <time>2013-05-05T10:13:42Z</time>
      </trkpt>
      <trkpt lat="32.77805" lon="-16.93438">
        <ele>932.616211</ele>
        <time>2013-05-05T10:13:47Z</time>
      </trkpt>
      <trkpt lat="32.77813" lon="-16.93435">
        <ele>932.616211</ele>
        <time>2013-05-05T10:13:57Z</time>
      </trkpt>
      <trkpt lat="32.77821" lon="-16.93425">
        <ele>932.135498</ele>
        <time>2013-05-05T10:14:09Z</time>
      </trkpt>
      <trkpt lat="32.77832" lon="-16.93423">
        <ele>932.135498</ele>
        <time>2013-05-05T10:14:15Z</time>
      </trkpt>
      <trkpt lat="32.77844" lon="-16.93418">
        <ele>932.135498</ele>
        <time>2013-05-05T10:14:25Z</time>
      </trkpt>
      <trkpt lat="32.77853" lon="-16.93417">
        <ele>932.135498</ele>
        <time>2013-05-05T10:14:33Z</time>
      </trkpt>
      <trkpt lat="32.77864" lon="-16.93411">
        <ele>931.654785</ele>
        <time>2013-05-05T10:14:44Z</time>
      </trkpt>
      <trkpt lat="32.77878" lon="-16.93407">
        <ele>931.654785</ele>
        <time>2013-05-05T10:14:56Z</time>
      </trkpt>
      <trkpt lat="32.77891" lon="-16.93401">
        <ele>930.693604</ele>
        <time>2013-05-05T10:15:07Z</time>
      </trkpt>
      <trkpt lat="32.77902" lon="-16.93392">
        <ele>931.174316</ele>
        <time>2013-05-05T10:15:16Z</time>
      </trkpt>
      <trkpt lat="32.77907" lon="-16.93388">
        <ele>930.693604</ele>
        <time>2013-05-05T10:15:22Z</time>
      </trkpt>
      <trkpt lat="32.77913" lon="-16.93386">
        <ele>930.212891</ele>
        <time>2013-05-05T10:15:29Z</time>
      </trkpt>
      <trkpt lat="32.77918" lon="-16.93383">
        <ele>930.212891</ele>
        <time>2013-05-05T10:15:32Z</time>
      </trkpt>
      <trkpt lat="32.77932" lon="-16.93377">
        <ele>930.212891</ele>
        <time>2013-05-05T10:15:47Z</time>
      </trkpt>
      <trkpt lat="32.7794" lon="-16.93375">
        <ele>930.212891</ele>
        <time>2013-05-05T10:15:57Z</time>
      </trkpt>
      <trkpt lat="32.77947" lon="-16.93365">
        <ele>929.732178</ele>
        <time>2013-05-05T10:16:06Z</time>
      </trkpt>
      <trkpt lat="32.77955" lon="-16.93353">
        <ele>929.251465</ele>
        <time>2013-05-05T10:16:19Z</time>
      </trkpt>
      <trkpt lat="32.77958" lon="-16.93354">
        <ele>929.251465</ele>
        <time>2013-05-05T10:16:20Z</time>
      </trkpt>
      <trkpt lat="32.77963" lon="-16.93354">
        <ele>929.251465</ele>
        <time>2013-05-05T10:16:37Z</time>
      </trkpt>
      <trkpt lat="32.77951" lon="-16.93346">
        <ele>929.251465</ele>
        <time>2013-05-05T10:16:53Z</time>
      </trkpt>
      <trkpt lat="32.77951" lon="-16.93337">
        <ele>928.770996</ele>
        <time>2013-05-05T10:17:02Z</time>
      </trkpt>
      <trkpt lat="32.77957" lon="-16.9332">
        <ele>928.290283</ele>
        <time>2013-05-05T10:17:16Z</time>
      </trkpt>
      <trkpt lat="32.77965" lon="-16.93308">
        <ele>928.290283</ele>
        <time>2013-05-05T10:17:27Z</time>
      </trkpt>
      <trkpt lat="32.77973" lon="-16.93296">
        <ele>928.290283</ele>
        <time>2013-05-05T10:17:37Z</time>
      </trkpt>
      <trkpt lat="32.77976" lon="-16.93286">
        <ele>927.80957</ele>
        <time>2013-05-05T10:17:46Z</time>
      </trkpt>
      <trkpt lat="32.77987" lon="-16.93277">
        <ele>928.290283</ele>
        <time>2013-05-05T10:17:56Z</time>
      </trkpt>
      <trkpt lat="32.7799" lon="-16.93265">
        <ele>927.80957</ele>
        <time>2013-05-05T10:18:06Z</time>
      </trkpt>
      <trkpt lat="32.77995" lon="-16.9326">
        <ele>927.80957</ele>
        <time>2013-05-05T10:18:11Z</time>
      </trkpt>
      <trkpt lat="32.77995" lon="-16.93248">
        <ele>927.80957</ele>
        <time>2013-05-05T10:18:20Z</time>
      </trkpt>
      <trkpt lat="32.77993" lon="-16.93247">
        <ele>927.329102</ele>
        <time>2013-05-05T10:18:21Z</time>
      </trkpt>
      <trkpt lat="32.77992" lon="-16.93232">
        <ele>927.329102</ele>
        <time>2013-05-05T10:18:32Z</time>
      </trkpt>
      <trkpt lat="32.77992" lon="-16.93214">
        <ele>926.848389</ele>
        <time>2013-05-05T10:18:44Z</time>
      </trkpt>
      <trkpt lat="32.78001" lon="-16.93201">
        <ele>927.80957</ele>
        <time>2013-05-05T10:18:54Z</time>
      </trkpt>
      <trkpt lat="32.78012" lon="-16.93191">
        <ele>926.367676</ele>
        <time>2013-05-05T10:19:06Z</time>
      </trkpt>
      <trkpt lat="32.78002" lon="-16.93176">
        <ele>927.329102</ele>
        <time>2013-05-05T10:19:29Z</time>
      </trkpt>
      <trkpt lat="32.78013" lon="-16.93174">
        <ele>926.367676</ele>
        <time>2013-05-05T10:19:36Z</time>
      </trkpt>
      <trkpt lat="32.78019" lon="-16.93149">
        <ele>926.367676</ele>
        <time>2013-05-05T10:19:55Z</time>
      </trkpt>
      <trkpt lat="32.78023" lon="-16.93146">
        <ele>925.886963</ele>
        <time>2013-05-05T10:20:07Z</time>
      </trkpt>
      <trkpt lat="32.78026" lon="-16.93144">
        <ele>925.886963</ele>
        <time>2013-05-05T10:20:10Z</time>
      </trkpt>
      <trkpt lat="32.78037" lon="-16.93132">
        <ele>925.886963</ele>
        <time>2013-05-05T10:20:22Z</time>
      </trkpt>
      <trkpt lat="32.78045" lon="-16.93119">
        <ele>925.886963</ele>
        <time>2013-05-05T10:20:34Z</time>
      </trkpt>
      <trkpt lat="32.78052" lon="-16.93105">
        <ele>925.886963</ele>
        <time>2013-05-05T10:20:49Z</time>
      </trkpt>
      <trkpt lat="32.78058" lon="-16.93095">
        <ele>925.40625</ele>
        <time>2013-05-05T10:21:02Z</time>
      </trkpt>
      <trkpt lat="32.78048" lon="-16.93092">
        <ele>924.925781</ele>
        <time>2013-05-05T10:21:15Z</time>
      </trkpt>
      <trkpt lat="32.78056" lon="-16.93083">
        <ele>924.445068</ele>
        <time>2013-05-05T10:21:31Z</time>
      </trkpt>
      <trkpt lat="32.78066" lon="-16.9307">
        <ele>924.445068</ele>
        <time>2013-05-05T10:21:44Z</time>
      </trkpt>
      <trkpt lat="32.7807" lon="-16.93085">
        <ele>924.445068</ele>
        <time>2013-05-05T10:22:28Z</time>
      </trkpt>
      <trkpt lat="32.78071" lon="-16.93091">
        <ele>924.925781</ele>
        <time>2013-05-05T10:22:30Z</time>
      </trkpt>
      <trkpt lat="32.78096" lon="-16.9308">
        <ele>923.964111</ele>
        <time>2013-05-05T10:22:40Z</time>
      </trkpt>
      <trkpt lat="32.78105" lon="-16.93058">
        <ele>923.964111</ele>
        <time>2013-05-05T10:22:53Z</time>
      </trkpt>
      <trkpt lat="32.78124" lon="-16.93039">
        <ele>923.483643</ele>
        <time>2013-05-05T10:23:13Z</time>
      </trkpt>
      <trkpt lat="32.78136" lon="-16.93026">
        <ele>923.483643</ele>
        <time>2013-05-05T10:23:23Z</time>
      </trkpt>
      <trkpt lat="32.78144" lon="-16.93012">
        <ele>923.483643</ele>
        <time>2013-05-05T10:23:37Z</time>
      </trkpt>
      <trkpt lat="32.78145" lon="-16.93">
        <ele>923.00293</ele>
        <time>2013-05-05T10:23:47Z</time>
      </trkpt>
      <trkpt lat="32.78153" lon="-16.92988">
        <ele>923.00293</ele>
        <time>2013-05-05T10:23:58Z</time>
      </trkpt>
      <trkpt lat="32.78158" lon="-16.92978">
        <ele>923.00293</ele>
        <time>2013-05-05T10:24:06Z</time>
      </trkpt>
      <trkpt lat="32.78159" lon="-16.92956">
        <ele>923.00293</ele>
        <time>2013-05-05T10:24:22Z</time>
      </trkpt>
      <trkpt lat="32.78165" lon="-16.9295">
        <ele>922.522217</ele>
        <time>2013-05-05T10:24:33Z</time>
      </trkpt>
      <trkpt lat="32.78169" lon="-16.92945">
        <ele>922.522217</ele>
        <time>2013-05-05T10:24:38Z</time>
      </trkpt>
      <trkpt lat="32.78169" lon="-16.92932">
        <ele>922.041504</ele>
        <time>2013-05-05T10:24:47Z</time>
      </trkpt>
      <trkpt lat="32.78174" lon="-16.92918">
        <ele>922.041504</ele>
        <time>2013-05-05T10:24:57Z</time>
      </trkpt>
      <trkpt lat="32.78176" lon="-16.929">
        <ele>922.041504</ele>
        <time>2013-05-05T10:25:12Z</time>
      </trkpt>
      <trkpt lat="32.78177" lon="-16.9289">
        <ele>921.560791</ele>
        <time>2013-05-05T10:25:20Z</time>
      </trkpt>
      <trkpt lat="32.78179" lon="-16.92874">
        <ele>921.560791</ele>
        <time>2013-05-05T10:25:32Z</time>
      </trkpt>
      <trkpt lat="32.7818" lon="-16.92852">
        <ele>921.080322</ele>
        <time>2013-05-05T10:25:48Z</time>
      </trkpt>
      <trkpt lat="32.78186" lon="-16.92843">
        <ele>921.080322</ele>
        <time>2013-05-05T10:25:57Z</time>
      </trkpt>
      <trkpt lat="32.78193" lon="-16.92836">
        <ele>921.560791</ele>
        <time>2013-05-05T10:26:03Z</time>
      </trkpt>
      <trkpt lat="32.78193" lon="-16.92833">
        <ele>921.560791</ele>
        <time>2013-05-05T10:26:05Z</time>
      </trkpt>
      <trkpt lat="32.78195" lon="-16.92827">
        <ele>922.041504</ele>
        <time>2013-05-05T10:26:09Z</time>
      </trkpt>
      <trkpt lat="32.78201" lon="-16.92805">
        <ele>921.080322</ele>
        <time>2013-05-05T10:26:25Z</time>
      </trkpt>
      <trkpt lat="32.78204" lon="-16.92791">
        <ele>921.560791</ele>
        <time>2013-05-05T10:26:35Z</time>
      </trkpt>
      <trkpt lat="32.78209" lon="-16.92786">
        <ele>921.080322</ele>
        <time>2013-05-05T10:26:41Z</time>
      </trkpt>
      <trkpt lat="32.78218" lon="-16.92778">
        <ele>921.560791</ele>
        <time>2013-05-05T10:26:51Z</time>
      </trkpt>
      <trkpt lat="32.78216" lon="-16.92771">
        <ele>918.196289</ele>
        <time>2013-05-05T10:27:01Z</time>
      </trkpt>
      <trkpt lat="32.78226" lon="-16.92758">
        <ele>919.638428</ele>
        <time>2013-05-05T10:27:21Z</time>
      </trkpt>
      <trkpt lat="32.78241" lon="-16.92742">
        <ele>921.080322</ele>
        <time>2013-05-05T10:27:38Z</time>
      </trkpt>
      <trkpt lat="32.78245" lon="-16.92728">
        <ele>921.080322</ele>
        <time>2013-05-05T10:27:49Z</time>
      </trkpt>
      <trkpt lat="32.78239" lon="-16.9271">
        <ele>920.118896</ele>
        <time>2013-05-05T10:27:59Z</time>
      </trkpt>
      <trkpt lat="32.78255" lon="-16.92701">
        <ele>920.118896</ele>
        <time>2013-05-05T10:28:20Z</time>
      </trkpt>
      <trkpt lat="32.78253" lon="-16.92706">
        <ele>920.599609</ele>
        <time>2013-05-05T10:28:36Z</time>
      </trkpt>
      <trkpt lat="32.7826" lon="-16.92701">
        <ele>920.118896</ele>
        <time>2013-05-05T10:28:46Z</time>
      </trkpt>
      <trkpt lat="32.78266" lon="-16.92683">
        <ele>919.157715</ele>
        <time>2013-05-05T10:29:07Z</time>
      </trkpt>
    </trkseg>
  </trk>
  <trk>
    <name><![CDATA[ACTIVE LOG 034]]></name>
    <trkseg>
      <trkpt lat="32.78268" lon="-16.92674">
        <ele>919.157715</ele>
        <time>2013-05-05T10:29:18Z</time>
      </trkpt>
      <trkpt lat="32.78268" lon="-16.92674">
        <ele>919.157715</ele>
        <time>2013-05-05T10:30:47Z</time>
      </trkpt>
    </trkseg>
  </trk>
  <trk>
    <name><![CDATA[ACTIVE LOG 035]]></name>
    <trkseg>
      <trkpt lat="32.78318" lon="-16.92676">
        <ele>918.196289</ele>
        <time>2013-05-05T10:30:55Z</time>
      </trkpt>
      <trkpt lat="32.78314" lon="-16.9273">
        <ele>917.715576</ele>
        <time>2013-05-05T10:31:19Z</time>
      </trkpt>
      <trkpt lat="32.78318" lon="-16.92731">
        <ele>918.677002</ele>
        <time>2013-05-05T10:31:27Z</time>
      </trkpt>
      <trkpt lat="32.78325" lon="-16.92737">
        <ele>917.715576</ele>
        <time>2013-05-05T10:31:31Z</time>
      </trkpt>
      <trkpt lat="32.78339" lon="-16.92728">
        <ele>917.715576</ele>
        <time>2013-05-05T10:31:42Z</time>
      </trkpt>
      <trkpt lat="32.78352" lon="-16.92721">
        <ele>917.715576</ele>
        <time>2013-05-05T10:31:52Z</time>
      </trkpt>
      <trkpt lat="32.78362" lon="-16.92719">
        <ele>918.196289</ele>
        <time>2013-05-05T10:32:03Z</time>
      </trkpt>
      <trkpt lat="32.78369" lon="-16.92721">
        <ele>917.715576</ele>
        <time>2013-05-05T10:32:16Z</time>
      </trkpt>
      <trkpt lat="32.78375" lon="-16.92707">
        <ele>917.715576</ele>
        <time>2013-05-05T10:32:26Z</time>
      </trkpt>
    </trkseg>
  </trk>
  <trk>
    <name><![CDATA[ACTIVE LOG 036]]></name>
    <trkseg>
      <trkpt lat="32.78368" lon="-16.9267">
        <ele>920.118896</ele>
        <time>2013-05-05T10:32:58Z</time>
      </trkpt>
      <trkpt lat="32.78368" lon="-16.9267">
        <ele>919.638428</ele>
        <time>2013-05-05T10:33:30Z</time>
      </trkpt>
      <trkpt lat="32.78368" lon="-16.9267">
        <ele>919.157715</ele>
        <time>2013-05-05T10:34:00Z</time>
      </trkpt>
      <trkpt lat="32.78368" lon="-16.9267">
        <ele>918.677002</ele>
        <time>2013-05-05T10:34:28Z</time>
      </trkpt>
      <trkpt lat="32.78368" lon="-16.9267">
        <ele>920.118896</ele>
        <time>2013-05-05T10:34:41Z</time>
      </trkpt>
    </trkseg>
  </trk>
  <trk>
    <name><![CDATA[ACTIVE LOG 037]]></name>
    <trkseg>
      <trkpt lat="32.78445" lon="-16.92517">
        <ele>919.638428</ele>
        <time>2013-05-05T10:35:28Z</time>
      </trkpt>
      <trkpt lat="32.78472" lon="-16.92529">
        <ele>919.157715</ele>
        <time>2013-05-05T10:35:37Z</time>
      </trkpt>
      <trkpt lat="32.78466" lon="-16.92532">
        <ele>919.638428</ele>
        <time>2013-05-05T10:35:48Z</time>
      </trkpt>
      <trkpt lat="32.78477" lon="-16.92529">
        <ele>919.638428</ele>
        <time>2013-05-05T10:36:08Z</time>
      </trkpt>
      <trkpt lat="32.78476" lon="-16.92527">
        <ele>919.638428</ele>
        <time>2013-05-05T10:36:09Z</time>
      </trkpt>
      <trkpt lat="32.78479" lon="-16.92522">
        <ele>919.638428</ele>
        <time>2013-05-05T10:36:16Z</time>
      </trkpt>
      <trkpt lat="32.78482" lon="-16.9251">
        <ele>920.118896</ele>
        <time>2013-05-05T10:36:27Z</time>
      </trkpt>
      <trkpt lat="32.78482" lon="-16.92508">
        <ele>920.118896</ele>
        <time>2013-05-05T10:36:39Z</time>
      </trkpt>
      <trkpt lat="32.78472" lon="-16.92527">
        <ele>920.118896</ele>
        <time>2013-05-05T10:36:48Z</time>
      </trkpt>
      <trkpt lat="32.7847" lon="-16.92528">
        <ele>919.638428</ele>
        <time>2013-05-05T10:36:49Z</time>
      </trkpt>
      <trkpt lat="32.78468" lon="-16.92513">
        <ele>919.638428</ele>
        <time>2013-05-05T10:37:03Z</time>
      </trkpt>
      <trkpt lat="32.78477" lon="-16.92476">
        <ele>920.118896</ele>
        <time>2013-05-05T10:37:25Z</time>
      </trkpt>
      <trkpt lat="32.78477" lon="-16.92468">
        <ele>919.157715</ele>
        <time>2013-05-05T10:37:34Z</time>
      </trkpt>
      <trkpt lat="32.7848" lon="-16.92451">
        <ele>919.157715</ele>
        <time>2013-05-05T10:37:46Z</time>
      </trkpt>
      <trkpt lat="32.78486" lon="-16.9244">
        <ele>918.677002</ele>
        <time>2013-05-05T10:37:55Z</time>
      </trkpt>
      <trkpt lat="32.7849" lon="-16.92425">
        <ele>919.157715</ele>
        <time>2013-05-05T10:38:06Z</time>
      </trkpt>
      <trkpt lat="32.78491" lon="-16.92424">
        <ele>919.638428</ele>
        <time>2013-05-05T10:38:07Z</time>
      </trkpt>
      <trkpt lat="32.78501" lon="-16.92413">
        <ele>918.677002</ele>
        <time>2013-05-05T10:38:17Z</time>
      </trkpt>
      <trkpt lat="32.78506" lon="-16.9239">
        <ele>918.196289</ele>
        <time>2013-05-05T10:38:31Z</time>
      </trkpt>
      <trkpt lat="32.78505" lon="-16.92376">
        <ele>919.638428</ele>
        <time>2013-05-05T10:38:41Z</time>
      </trkpt>
      <trkpt lat="32.78508" lon="-16.92367">
        <ele>919.157715</ele>
        <time>2013-05-05T10:38:50Z</time>
      </trkpt>
      <trkpt lat="32.78516" lon="-16.92354">
        <ele>919.157715</ele>
        <time>2013-05-05T10:39:01Z</time>
      </trkpt>
      <trkpt lat="32.78521" lon="-16.92344">
        <ele>918.196289</ele>
        <time>2013-05-05T10:39:10Z</time>
      </trkpt>
      <trkpt lat="32.78519" lon="-16.92332">
        <ele>918.677002</ele>
        <time>2013-05-05T10:39:20Z</time>
      </trkpt>
      <trkpt lat="32.78518" lon="-16.92331">
        <ele>918.196289</ele>
        <time>2013-05-05T10:39:21Z</time>
      </trkpt>
      <trkpt lat="32.78519" lon="-16.92308">
        <ele>918.677002</ele>
        <time>2013-05-05T10:39:41Z</time>
      </trkpt>
      <trkpt lat="32.78485" lon="-16.92293">
        <ele>918.196289</ele>
        <time>2013-05-05T10:40:24Z</time>
      </trkpt>
      <trkpt lat="32.78482" lon="-16.923">
        <ele>918.196289</ele>
        <time>2013-05-05T10:40:33Z</time>
      </trkpt>
      <trkpt lat="32.7848" lon="-16.92307">
        <ele>918.196289</ele>
        <time>2013-05-05T10:40:37Z</time>
      </trkpt>
      <trkpt lat="32.78474" lon="-16.9232">
        <ele>918.196289</ele>
        <time>2013-05-05T10:40:51Z</time>
      </trkpt>
      <trkpt lat="32.78475" lon="-16.92322">
        <ele>917.235107</ele>
        <time>2013-05-05T10:41:12Z</time>
      </trkpt>
      <trkpt lat="32.78464" lon="-16.92333">
        <ele>917.235107</ele>
        <time>2013-05-05T10:41:27Z</time>
      </trkpt>
      <trkpt lat="32.78444" lon="-16.92342">
        <ele>916.273682</ele>
        <time>2013-05-05T10:41:41Z</time>
      </trkpt>
      <trkpt lat="32.78398" lon="-16.92356">
        <ele>915.3125</ele>
        <time>2013-05-05T10:42:07Z</time>
      </trkpt>
      <trkpt lat="32.78384" lon="-16.92355">
        <ele>916.754395</ele>
        <time>2013-05-05T10:42:17Z</time>
      </trkpt>
      <trkpt lat="32.78381" lon="-16.92356">
        <ele>916.273682</ele>
        <time>2013-05-05T10:42:19Z</time>
      </trkpt>
      <trkpt lat="32.78368" lon="-16.92359">
        <ele>916.754395</ele>
        <time>2013-05-05T10:42:28Z</time>
      </trkpt>
      <trkpt lat="32.78353" lon="-16.92364">
        <ele>915.3125</ele>
        <time>2013-05-05T10:42:41Z</time>
      </trkpt>
      <trkpt lat="32.78337" lon="-16.92357">
        <ele>914.831787</ele>
        <time>2013-05-05T10:42:55Z</time>
      </trkpt>
      <trkpt lat="32.78325" lon="-16.92359">
        <ele>916.754395</ele>
        <time>2013-05-05T10:43:15Z</time>
      </trkpt>
      <trkpt lat="32.78326" lon="-16.92359">
        <ele>916.273682</ele>
        <time>2013-05-05T10:43:17Z</time>
      </trkpt>
      <trkpt lat="32.7833" lon="-16.92353">
        <ele>915.793213</ele>
        <time>2013-05-05T10:43:33Z</time>
      </trkpt>
      <trkpt lat="32.78316" lon="-16.92329">
        <ele>915.3125</ele>
        <time>2013-05-05T10:43:44Z</time>
      </trkpt>
      <trkpt lat="32.78319" lon="-16.92325">
        <ele>916.273682</ele>
        <time>2013-05-05T10:43:52Z</time>
      </trkpt>
      <trkpt lat="32.78315" lon="-16.92315">
        <ele>916.273682</ele>
        <time>2013-05-05T10:44:01Z</time>
      </trkpt>
      <trkpt lat="32.78313" lon="-16.92304">
        <ele>915.3125</ele>
        <time>2013-05-05T10:44:11Z</time>
      </trkpt>
      <trkpt lat="32.78309" lon="-16.92289">
        <ele>915.793213</ele>
        <time>2013-05-05T10:44:22Z</time>
      </trkpt>
      <trkpt lat="32.78308" lon="-16.92276">
        <ele>915.793213</ele>
        <time>2013-05-05T10:44:32Z</time>
      </trkpt>
      <trkpt lat="32.7831" lon="-16.92272">
        <ele>916.273682</ele>
        <time>2013-05-05T10:44:43Z</time>
      </trkpt>
      <trkpt lat="32.78314" lon="-16.92274">
        <ele>915.3125</ele>
        <time>2013-05-05T10:45:03Z</time>
      </trkpt>
      <trkpt lat="32.78306" lon="-16.92268">
        <ele>915.793213</ele>
        <time>2013-05-05T10:45:08Z</time>
      </trkpt>
      <trkpt lat="32.78304" lon="-16.9226">
        <ele>915.793213</ele>
        <time>2013-05-05T10:45:12Z</time>
      </trkpt>
      <trkpt lat="32.78305" lon="-16.92244">
        <ele>915.3125</ele>
        <time>2013-05-05T10:45:23Z</time>
      </trkpt>
      <trkpt lat="32.78289" lon="-16.92229">
        <ele>914.831787</ele>
        <time>2013-05-05T10:45:35Z</time>
      </trkpt>
      <trkpt lat="32.78278" lon="-16.92222">
        <ele>915.3125</ele>
        <time>2013-05-05T10:45:45Z</time>
      </trkpt>
      <trkpt lat="32.78263" lon="-16.92218">
        <ele>913.870361</ele>
        <time>2013-05-05T10:45:57Z</time>
      </trkpt>
      <trkpt lat="32.78249" lon="-16.92203">
        <ele>914.831787</ele>
        <time>2013-05-05T10:46:09Z</time>
      </trkpt>
      <trkpt lat="32.78238" lon="-16.92201">
        <ele>914.351074</ele>
        <time>2013-05-05T10:46:18Z</time>
      </trkpt>
      <trkpt lat="32.7822" lon="-16.92202">
        <ele>913.870361</ele>
        <time>2013-05-05T10:46:33Z</time>
      </trkpt>
      <trkpt lat="32.78201" lon="-16.92227">
        <ele>914.831787</ele>
        <time>2013-05-05T10:46:56Z</time>
      </trkpt>
      <trkpt lat="32.78191" lon="-16.92229">
        <ele>914.351074</ele>
        <time>2013-05-05T10:47:04Z</time>
      </trkpt>
      <trkpt lat="32.78189" lon="-16.92218">
        <ele>916.273682</ele>
        <time>2013-05-05T10:47:17Z</time>
      </trkpt>
      <trkpt lat="32.78187" lon="-16.92217">
        <ele>916.273682</ele>
        <time>2013-05-05T10:47:18Z</time>
      </trkpt>
      <trkpt lat="32.78179" lon="-16.92209">
        <ele>915.3125</ele>
        <time>2013-05-05T10:47:29Z</time>
      </trkpt>
      <trkpt lat="32.7818" lon="-16.92207">
        <ele>915.3125</ele>
        <time>2013-05-05T10:47:32Z</time>
      </trkpt>
      <trkpt lat="32.78185" lon="-16.92199">
        <ele>914.831787</ele>
        <time>2013-05-05T10:47:46Z</time>
      </trkpt>
      <trkpt lat="32.78184" lon="-16.92191">
        <ele>914.351074</ele>
        <time>2013-05-05T10:47:59Z</time>
      </trkpt>
      <trkpt lat="32.78187" lon="-16.9217">
        <ele>914.351074</ele>
        <time>2013-05-05T10:48:13Z</time>
      </trkpt>
      <trkpt lat="32.78188" lon="-16.92156">
        <ele>914.831787</ele>
        <time>2013-05-05T10:48:26Z</time>
      </trkpt>
      <trkpt lat="32.78188" lon="-16.92136">
        <ele>915.3125</ele>
        <time>2013-05-05T10:48:41Z</time>
      </trkpt>
      <trkpt lat="32.78181" lon="-16.92132">
        <ele>915.3125</ele>
        <time>2013-05-05T10:48:48Z</time>
      </trkpt>
      <trkpt lat="32.78166" lon="-16.92127">
        <ele>914.831787</ele>
        <time>2013-05-05T10:49:04Z</time>
      </trkpt>
      <trkpt lat="32.78164" lon="-16.92127">
        <ele>915.3125</ele>
        <time>2013-05-05T10:49:07Z</time>
      </trkpt>
      <trkpt lat="32.78152" lon="-16.92128">
        <ele>914.831787</ele>
        <time>2013-05-05T10:49:18Z</time>
      </trkpt>
      <trkpt lat="32.7814" lon="-16.9212">
        <ele>914.831787</ele>
        <time>2013-05-05T10:49:31Z</time>
      </trkpt>
      <trkpt lat="32.7813" lon="-16.92122">
        <ele>914.351074</ele>
        <time>2013-05-05T10:49:40Z</time>
      </trkpt>
      <trkpt lat="32.78123" lon="-16.9212">
        <ele>914.351074</ele>
        <time>2013-05-05T10:49:50Z</time>
      </trkpt>
      <trkpt lat="32.7812" lon="-16.92119">
        <ele>914.351074</ele>
        <time>2013-05-05T10:49:53Z</time>
      </trkpt>
      <trkpt lat="32.78119" lon="-16.9212">
        <ele>914.831787</ele>
        <time>2013-05-05T10:49:55Z</time>
      </trkpt>
      <trkpt lat="32.78112" lon="-16.92118">
        <ele>914.831787</ele>
        <time>2013-05-05T10:50:00Z</time>
      </trkpt>
      <trkpt lat="32.78104" lon="-16.92116">
        <ele>914.351074</ele>
        <time>2013-05-05T10:50:03Z</time>
      </trkpt>
      <trkpt lat="32.78085" lon="-16.9211">
        <ele>914.351074</ele>
        <time>2013-05-05T10:50:12Z</time>
      </trkpt>
      <trkpt lat="32.78069" lon="-16.92103">
        <ele>914.351074</ele>
        <time>2013-05-05T10:50:20Z</time>
      </trkpt>
      <trkpt lat="32.78054" lon="-16.92105">
        <ele>914.351074</ele>
        <time>2013-05-05T10:50:30Z</time>
      </trkpt>
      <trkpt lat="32.78054" lon="-16.9211">
        <ele>914.351074</ele>
        <time>2013-05-05T10:50:41Z</time>
      </trkpt>
      <trkpt lat="32.78033" lon="-16.92111">
        <ele>914.831787</ele>
        <time>2013-05-05T10:50:51Z</time>
      </trkpt>
      <trkpt lat="32.78016" lon="-16.92113">
        <ele>915.3125</ele>
        <time>2013-05-05T10:51:03Z</time>
      </trkpt>
      <trkpt lat="32.78012" lon="-16.92117">
        <ele>914.831787</ele>
        <time>2013-05-05T10:51:09Z</time>
      </trkpt>
      <trkpt lat="32.78005" lon="-16.92131">
        <ele>915.3125</ele>
        <time>2013-05-05T10:51:21Z</time>
      </trkpt>
      <trkpt lat="32.77997" lon="-16.92133">
        <ele>914.831787</ele>
        <time>2013-05-05T10:51:27Z</time>
      </trkpt>
      <trkpt lat="32.77981" lon="-16.92147">
        <ele>915.3125</ele>
        <time>2013-05-05T10:51:39Z</time>
      </trkpt>
      <trkpt lat="32.77979" lon="-16.92155">
        <ele>914.831787</ele>
        <time>2013-05-05T10:51:47Z</time>
      </trkpt>
      <trkpt lat="32.77972" lon="-16.92153">
        <ele>915.793213</ele>
        <time>2013-05-05T10:51:56Z</time>
      </trkpt>
      <trkpt lat="32.7796" lon="-16.92151">
        <ele>915.793213</ele>
        <time>2013-05-05T10:52:07Z</time>
      </trkpt>
      <trkpt lat="32.77946" lon="-16.92148">
        <ele>915.793213</ele>
        <time>2013-05-05T10:52:32Z</time>
      </trkpt>
      <trkpt lat="32.7794" lon="-16.92144">
        <ele>915.793213</ele>
        <time>2013-05-05T10:52:36Z</time>
      </trkpt>
      <trkpt lat="32.77908" lon="-16.9213">
        <ele>915.793213</ele>
        <time>2013-05-05T10:52:50Z</time>
      </trkpt>
      <trkpt lat="32.77903" lon="-16.92126">
        <ele>916.273682</ele>
        <time>2013-05-05T10:53:04Z</time>
      </trkpt>
      <trkpt lat="32.77903" lon="-16.92137">
        <ele>916.754395</ele>
        <time>2013-05-05T10:53:12Z</time>
      </trkpt>
      <trkpt lat="32.77896" lon="-16.92166">
        <ele>916.754395</ele>
        <time>2013-05-05T10:53:22Z</time>
      </trkpt>
      <trkpt lat="32.77898" lon="-16.92162">
        <ele>916.273682</ele>
        <time>2013-05-05T10:53:23Z</time>
      </trkpt>
      <trkpt lat="32.77914" lon="-16.92147">
        <ele>916.754395</ele>
        <time>2013-05-05T10:53:33Z</time>
      </trkpt>
      <trkpt lat="32.77921" lon="-16.92146">
        <ele>917.235107</ele>
        <time>2013-05-05T10:53:43Z</time>
      </trkpt>
      <trkpt lat="32.77926" lon="-16.92142">
        <ele>917.235107</ele>
        <time>2013-05-05T10:53:47Z</time>
      </trkpt>
      <trkpt lat="32.77931" lon="-16.92136">
        <ele>917.235107</ele>
        <time>2013-05-05T10:54:03Z</time>
      </trkpt>
      <trkpt lat="32.77932" lon="-16.92131">
        <ele>917.715576</ele>
        <time>2013-05-05T10:54:14Z</time>
      </trkpt>
      <trkpt lat="32.77926" lon="-16.92137">
        <ele>917.715576</ele>
        <time>2013-05-05T10:54:19Z</time>
      </trkpt>
      <trkpt lat="32.77933" lon="-16.92149">
        <ele>917.715576</ele>
        <time>2013-05-05T10:54:31Z</time>
      </trkpt>
      <trkpt lat="32.77951" lon="-16.92157">
        <ele>918.196289</ele>
        <time>2013-05-05T10:54:41Z</time>
      </trkpt>
      <trkpt lat="32.77965" lon="-16.92164">
        <ele>919.157715</ele>
        <time>2013-05-05T10:54:52Z</time>
      </trkpt>
      <trkpt lat="32.77978" lon="-16.92163">
        <ele>919.638428</ele>
        <time>2013-05-05T10:55:17Z</time>
      </trkpt>
      <trkpt lat="32.77997" lon="-16.92168">
        <ele>921.080322</ele>
        <time>2013-05-05T10:55:37Z</time>
      </trkpt>
      <trkpt lat="32.77993" lon="-16.92153">
        <ele>920.599609</ele>
        <time>2013-05-05T10:55:47Z</time>
      </trkpt>
      <trkpt lat="32.78002" lon="-16.92139">
        <ele>921.560791</ele>
        <time>2013-05-05T10:55:58Z</time>
      </trkpt>
      <trkpt lat="32.78008" lon="-16.92122">
        <ele>921.080322</ele>
        <time>2013-05-05T10:56:09Z</time>
      </trkpt>
      <trkpt lat="32.78016" lon="-16.92116">
        <ele>921.560791</ele>
        <time>2013-05-05T10:56:15Z</time>
      </trkpt>
      <trkpt lat="32.78036" lon="-16.92095">
        <ele>922.041504</ele>
        <time>2013-05-05T10:56:27Z</time>
      </trkpt>
      <trkpt lat="32.78036" lon="-16.92075">
        <ele>921.080322</ele>
        <time>2013-05-05T10:56:39Z</time>
      </trkpt>
      <trkpt lat="32.78043" lon="-16.92067">
        <ele>921.080322</ele>
        <time>2013-05-05T10:56:47Z</time>
      </trkpt>
      <trkpt lat="32.78048" lon="-16.92056">
        <ele>921.080322</ele>
        <time>2013-05-05T10:56:57Z</time>
      </trkpt>
      <trkpt lat="32.78047" lon="-16.92042">
        <ele>920.118896</ele>
        <time>2013-05-05T10:57:07Z</time>
      </trkpt>
      <trkpt lat="32.7805" lon="-16.92041">
        <ele>920.118896</ele>
        <time>2013-05-05T10:57:09Z</time>
      </trkpt>
      <trkpt lat="32.78056" lon="-16.92039">
        <ele>920.118896</ele>
        <time>2013-05-05T10:57:12Z</time>
      </trkpt>
      <trkpt lat="32.78072" lon="-16.92026">
        <ele>919.638428</ele>
        <time>2013-05-05T10:57:25Z</time>
      </trkpt>
      <trkpt lat="32.7808" lon="-16.92019">
        <ele>920.118896</ele>
        <time>2013-05-05T10:57:35Z</time>
      </trkpt>
      <trkpt lat="32.78091" lon="-16.9201">
        <ele>919.157715</ele>
        <time>2013-05-05T10:57:46Z</time>
      </trkpt>
      <trkpt lat="32.78104" lon="-16.91995">
        <ele>920.118896</ele>
        <time>2013-05-05T10:57:56Z</time>
      </trkpt>
      <trkpt lat="32.78112" lon="-16.91985">
        <ele>919.157715</ele>
        <time>2013-05-05T10:58:06Z</time>
      </trkpt>
      <trkpt lat="32.78119" lon="-16.91985">
        <ele>919.157715</ele>
        <time>2013-05-05T10:58:12Z</time>
      </trkpt>
      <trkpt lat="32.78127" lon="-16.91976">
        <ele>920.599609</ele>
        <time>2013-05-05T10:58:21Z</time>
      </trkpt>
      <trkpt lat="32.78132" lon="-16.9197">
        <ele>919.638428</ele>
        <time>2013-05-05T10:58:32Z</time>
      </trkpt>
      <trkpt lat="32.78152" lon="-16.91969">
        <ele>919.157715</ele>
        <time>2013-05-05T10:58:42Z</time>
      </trkpt>
      <trkpt lat="32.7816" lon="-16.91964">
        <ele>919.157715</ele>
        <time>2013-05-05T10:58:54Z</time>
      </trkpt>
      <trkpt lat="32.7816" lon="-16.91972">
        <ele>920.118896</ele>
        <time>2013-05-05T10:59:09Z</time>
      </trkpt>
      <trkpt lat="32.78177" lon="-16.91972">
        <ele>919.157715</ele>
        <time>2013-05-05T10:59:18Z</time>
      </trkpt>
      <trkpt lat="32.78184" lon="-16.91965">
        <ele>919.157715</ele>
        <time>2013-05-05T10:59:26Z</time>
      </trkpt>
      <trkpt lat="32.78199" lon="-16.91958">
        <ele>919.157715</ele>
        <time>2013-05-05T10:59:38Z</time>
      </trkpt>
      <trkpt lat="32.78215" lon="-16.91954">
        <ele>919.638428</ele>
        <time>2013-05-05T10:59:47Z</time>
      </trkpt>
      <trkpt lat="32.78226" lon="-16.91948">
        <ele>920.118896</ele>
        <time>2013-05-05T10:59:56Z</time>
      </trkpt>
      <trkpt lat="32.78224" lon="-16.91952">
        <ele>919.638428</ele>
        <time>2013-05-05T11:00:06Z</time>
      </trkpt>
      <trkpt lat="32.78218" lon="-16.91961">
        <ele>919.638428</ele>
        <time>2013-05-05T11:00:11Z</time>
      </trkpt>
      <trkpt lat="32.78238" lon="-16.91958">
        <ele>920.118896</ele>
        <time>2013-05-05T11:00:23Z</time>
      </trkpt>
      <trkpt lat="32.7824" lon="-16.91957">
        <ele>920.118896</ele>
        <time>2013-05-05T11:00:24Z</time>
      </trkpt>
      <trkpt lat="32.78259" lon="-16.91957">
        <ele>920.118896</ele>
        <time>2013-05-05T11:00:36Z</time>
      </trkpt>
      <trkpt lat="32.78268" lon="-16.91976">
        <ele>919.157715</ele>
        <time>2013-05-05T11:01:00Z</time>
      </trkpt>
      <trkpt lat="32.78291" lon="-16.91974">
        <ele>919.638428</ele>
        <time>2013-05-05T11:01:10Z</time>
      </trkpt>
      <trkpt lat="32.78308" lon="-16.91968">
        <ele>919.157715</ele>
        <time>2013-05-05T11:01:23Z</time>
      </trkpt>
      <trkpt lat="32.78312" lon="-16.91977">
        <ele>919.157715</ele>
        <time>2013-05-05T11:01:32Z</time>
      </trkpt>
      <trkpt lat="32.78329" lon="-16.91964">
        <ele>919.638428</ele>
        <time>2013-05-05T11:01:42Z</time>
      </trkpt>
      <trkpt lat="32.78333" lon="-16.91958">
        <ele>919.638428</ele>
        <time>2013-05-05T11:01:47Z</time>
      </trkpt>
      <trkpt lat="32.78336" lon="-16.91955">
        <ele>918.677002</ele>
        <time>2013-05-05T11:01:49Z</time>
      </trkpt>
      <trkpt lat="32.78336" lon="-16.91945">
        <ele>918.677002</ele>
        <time>2013-05-05T11:01:55Z</time>
      </trkpt>
      <trkpt lat="32.7833" lon="-16.91922">
        <ele>919.157715</ele>
        <time>2013-05-05T11:02:09Z</time>
      </trkpt>
      <trkpt lat="32.78327" lon="-16.9191">
        <ele>918.677002</ele>
        <time>2013-05-05T11:02:21Z</time>
      </trkpt>
      <trkpt lat="32.78324" lon="-16.91893">
        <ele>918.677002</ele>
        <time>2013-05-05T11:02:33Z</time>
      </trkpt>
      <trkpt lat="32.78327" lon="-16.91881">
        <ele>918.196289</ele>
        <time>2013-05-05T11:02:43Z</time>
      </trkpt>
      <trkpt lat="32.78334" lon="-16.9187">
        <ele>918.196289</ele>
        <time>2013-05-05T11:02:53Z</time>
      </trkpt>
      <trkpt lat="32.78342" lon="-16.91864">
        <ele>918.196289</ele>
        <time>2013-05-05T11:03:01Z</time>
      </trkpt>
      <trkpt lat="32.78355" lon="-16.91853">
        <ele>917.715576</ele>
        <time>2013-05-05T11:03:12Z</time>
      </trkpt>
      <trkpt lat="32.78368" lon="-16.91857">
        <ele>918.196289</ele>
        <time>2013-05-05T11:03:24Z</time>
      </trkpt>
      <trkpt lat="32.78385" lon="-16.91846">
        <ele>917.235107</ele>
        <time>2013-05-05T11:03:37Z</time>
      </trkpt>
      <trkpt lat="32.78396" lon="-16.91838">
        <ele>917.715576</ele>
        <time>2013-05-05T11:03:44Z</time>
      </trkpt>
      <trkpt lat="32.78408" lon="-16.91825">
        <ele>917.235107</ele>
        <time>2013-05-05T11:03:56Z</time>
      </trkpt>
      <trkpt lat="32.78408" lon="-16.91823">
        <ele>917.715576</ele>
        <time>2013-05-05T11:03:57Z</time>
      </trkpt>
      <trkpt lat="32.78408" lon="-16.91804">
        <ele>917.235107</ele>
        <time>2013-05-05T11:04:08Z</time>
      </trkpt>
      <trkpt lat="32.78417" lon="-16.91793">
        <ele>917.235107</ele>
        <time>2013-05-05T11:04:20Z</time>
      </trkpt>
      <trkpt lat="32.78424" lon="-16.91793">
        <ele>916.754395</ele>
        <time>2013-05-05T11:04:24Z</time>
      </trkpt>
      <trkpt lat="32.78436" lon="-16.91787">
        <ele>917.235107</ele>
        <time>2013-05-05T11:04:36Z</time>
      </trkpt>
      <trkpt lat="32.78437" lon="-16.91787">
        <ele>917.235107</ele>
        <time>2013-05-05T11:04:37Z</time>
      </trkpt>
      <trkpt lat="32.78457" lon="-16.9178">
        <ele>916.754395</ele>
        <time>2013-05-05T11:04:50Z</time>
      </trkpt>
      <trkpt lat="32.78463" lon="-16.91759">
        <ele>916.754395</ele>
        <time>2013-05-05T11:05:06Z</time>
      </trkpt>
      <trkpt lat="32.78461" lon="-16.91748">
        <ele>916.754395</ele>
        <time>2013-05-05T11:05:15Z</time>
      </trkpt>
      <trkpt lat="32.78461" lon="-16.91744">
        <ele>916.754395</ele>
        <time>2013-05-05T11:05:17Z</time>
      </trkpt>
      <trkpt lat="32.78457" lon="-16.91722">
        <ele>915.793213</ele>
        <time>2013-05-05T11:05:30Z</time>
      </trkpt>
      <trkpt lat="32.78454" lon="-16.9171">
        <ele>916.273682</ele>
        <time>2013-05-05T11:05:42Z</time>
      </trkpt>
      <trkpt lat="32.78448" lon="-16.91701">
        <ele>915.793213</ele>
        <time>2013-05-05T11:05:50Z</time>
      </trkpt>
      <trkpt lat="32.78445" lon="-16.91699">
        <ele>916.273682</ele>
        <time>2013-05-05T11:05:52Z</time>
      </trkpt>
      <trkpt lat="32.7844" lon="-16.91684">
        <ele>916.273682</ele>
        <time>2013-05-05T11:06:06Z</time>
      </trkpt>
      <trkpt lat="32.78424" lon="-16.91666">
        <ele>915.793213</ele>
        <time>2013-05-05T11:06:25Z</time>
      </trkpt>
      <trkpt lat="32.78424" lon="-16.91653">
        <ele>915.3125</ele>
        <time>2013-05-05T11:06:35Z</time>
      </trkpt>
      <trkpt lat="32.78427" lon="-16.9163">
        <ele>914.831787</ele>
        <time>2013-05-05T11:06:55Z</time>
      </trkpt>
      <trkpt lat="32.78428" lon="-16.91616">
        <ele>914.351074</ele>
        <time>2013-05-05T11:07:04Z</time>
      </trkpt>
      <trkpt lat="32.78415" lon="-16.91611">
        <ele>914.351074</ele>
        <time>2013-05-05T11:07:16Z</time>
      </trkpt>
      <trkpt lat="32.78402" lon="-16.91606">
        <ele>914.351074</ele>
        <time>2013-05-05T11:07:28Z</time>
      </trkpt>
      <trkpt lat="32.78389" lon="-16.9161">
        <ele>913.870361</ele>
        <time>2013-05-05T11:07:42Z</time>
      </trkpt>
      <trkpt lat="32.78382" lon="-16.91613">
        <ele>913.870361</ele>
        <time>2013-05-05T11:07:49Z</time>
      </trkpt>
      <trkpt lat="32.78376" lon="-16.9162">
        <ele>913.389893</ele>
        <time>2013-05-05T11:07:53Z</time>
      </trkpt>
      <trkpt lat="32.78367" lon="-16.91625">
        <ele>914.351074</ele>
        <time>2013-05-05T11:08:03Z</time>
      </trkpt>
      <trkpt lat="32.78356" lon="-16.9163">
        <ele>914.351074</ele>
        <time>2013-05-05T11:08:14Z</time>
      </trkpt>
      <trkpt lat="32.78353" lon="-16.91633">
        <ele>913.870361</ele>
        <time>2013-05-05T11:08:17Z</time>
      </trkpt>
      <trkpt lat="32.78342" lon="-16.91635">
        <ele>913.870361</ele>
        <time>2013-05-05T11:08:29Z</time>
      </trkpt>
      <trkpt lat="32.78341" lon="-16.91633">
        <ele>913.870361</ele>
        <time>2013-05-05T11:08:30Z</time>
      </trkpt>
      <trkpt lat="32.78333" lon="-16.91638">
        <ele>913.389893</ele>
        <time>2013-05-05T11:08:40Z</time>
      </trkpt>
      <trkpt lat="32.78321" lon="-16.91651">
        <ele>914.351074</ele>
        <time>2013-05-05T11:08:53Z</time>
      </trkpt>
      <trkpt lat="32.78311" lon="-16.91629">
        <ele>914.351074</ele>
        <time>2013-05-05T11:09:07Z</time>
      </trkpt>
      <trkpt lat="32.78306" lon="-16.91626">
        <ele>914.351074</ele>
        <time>2013-05-05T11:09:11Z</time>
      </trkpt>
      <trkpt lat="32.78294" lon="-16.91628">
        <ele>914.351074</ele>
        <time>2013-05-05T11:09:20Z</time>
      </trkpt>
      <trkpt lat="32.78268" lon="-16.91635">
        <ele>914.351074</ele>
        <time>2013-05-05T11:09:34Z</time>
      </trkpt>
      <trkpt lat="32.78259" lon="-16.91644">
        <ele>914.831787</ele>
        <time>2013-05-05T11:09:47Z</time>
      </trkpt>
      <trkpt lat="32.78259" lon="-16.91645">
        <ele>915.3125</ele>
        <time>2013-05-05T11:09:48Z</time>
      </trkpt>
      <trkpt lat="32.78258" lon="-16.91651">
        <ele>914.351074</ele>
        <time>2013-05-05T11:09:50Z</time>
      </trkpt>
      <trkpt lat="32.78245" lon="-16.91658">
        <ele>914.831787</ele>
        <time>2013-05-05T11:10:00Z</time>
      </trkpt>
      <trkpt lat="32.7823" lon="-16.91656">
        <ele>914.831787</ele>
        <time>2013-05-05T11:10:09Z</time>
      </trkpt>
      <trkpt lat="32.7823" lon="-16.91666">
        <ele>914.831787</ele>
        <time>2013-05-05T11:10:14Z</time>
      </trkpt>
      <trkpt lat="32.78226" lon="-16.91684">
        <ele>913.870361</ele>
        <time>2013-05-05T11:10:24Z</time>
      </trkpt>
      <trkpt lat="32.78215" lon="-16.91695">
        <ele>914.831787</ele>
        <time>2013-05-05T11:10:34Z</time>
      </trkpt>
      <trkpt lat="32.78202" lon="-16.91705">
        <ele>914.351074</ele>
        <time>2013-05-05T11:10:44Z</time>
      </trkpt>
      <trkpt lat="32.78192" lon="-16.91707">
        <ele>914.831787</ele>
        <time>2013-05-05T11:10:51Z</time>
      </trkpt>
      <trkpt lat="32.78166" lon="-16.9171">
        <ele>914.351074</ele>
        <time>2013-05-05T11:11:06Z</time>
      </trkpt>
      <trkpt lat="32.78156" lon="-16.91714">
        <ele>914.351074</ele>
        <time>2013-05-05T11:11:14Z</time>
      </trkpt>
      <trkpt lat="32.78131" lon="-16.91714">
        <ele>914.351074</ele>
        <time>2013-05-05T11:11:29Z</time>
      </trkpt>
      <trkpt lat="32.78116" lon="-16.91706">
        <ele>913.870361</ele>
        <time>2013-05-05T11:11:38Z</time>
      </trkpt>
      <trkpt lat="32.78113" lon="-16.91704">
        <ele>913.389893</ele>
        <time>2013-05-05T11:11:40Z</time>
      </trkpt>
      <trkpt lat="32.7811" lon="-16.91706">
        <ele>913.389893</ele>
        <time>2013-05-05T11:11:44Z</time>
      </trkpt>
      <trkpt lat="32.78112" lon="-16.91696">
        <ele>913.389893</ele>
        <time>2013-05-05T11:11:50Z</time>
      </trkpt>
      <trkpt lat="32.78109" lon="-16.91693">
        <ele>912.90918</ele>
        <time>2013-05-05T11:11:53Z</time>
      </trkpt>
      <trkpt lat="32.78095" lon="-16.91658">
        <ele>912.90918</ele>
        <time>2013-05-05T11:12:07Z</time>
      </trkpt>
      <trkpt lat="32.78089" lon="-16.91661">
        <ele>912.90918</ele>
        <time>2013-05-05T11:12:17Z</time>
      </trkpt>
      <trkpt lat="32.78085" lon="-16.91658">
        <ele>912.90918</ele>
        <time>2013-05-05T11:12:21Z</time>
      </trkpt>
      <trkpt lat="32.7809" lon="-16.91651">
        <ele>913.389893</ele>
        <time>2013-05-05T11:12:34Z</time>
      </trkpt>
      <trkpt lat="32.78098" lon="-16.9165">
        <ele>913.389893</ele>
        <time>2013-05-05T11:12:47Z</time>
      </trkpt>
      <trkpt lat="32.78106" lon="-16.91653">
        <ele>913.870361</ele>
        <time>2013-05-05T11:12:57Z</time>
      </trkpt>
      <trkpt lat="32.78116" lon="-16.91691">
        <ele>913.870361</ele>
        <time>2013-05-05T11:13:17Z</time>
      </trkpt>
      <trkpt lat="32.78123" lon="-16.91689">
        <ele>914.351074</ele>
        <time>2013-05-05T11:13:19Z</time>
      </trkpt>
      <trkpt lat="32.78135" lon="-16.91681">
        <ele>914.351074</ele>
        <time>2013-05-05T11:13:24Z</time>
      </trkpt>
      <trkpt lat="32.78141" lon="-16.91673">
        <ele>913.870361</ele>
        <time>2013-05-05T11:13:29Z</time>
      </trkpt>
      <trkpt lat="32.7816" lon="-16.91675">
        <ele>913.870361</ele>
        <time>2013-05-05T11:13:37Z</time>
      </trkpt>
      <trkpt lat="32.78161" lon="-16.91668">
        <ele>913.870361</ele>
        <time>2013-05-05T11:13:49Z</time>
      </trkpt>
      <trkpt lat="32.78169" lon="-16.91661">
        <ele>914.831787</ele>
        <time>2013-05-05T11:14:04Z</time>
      </trkpt>
      <trkpt lat="32.78178" lon="-16.9166">
        <ele>914.831787</ele>
        <time>2013-05-05T11:14:21Z</time>
      </trkpt>
      <trkpt lat="32.78197" lon="-16.91654">
        <ele>915.793213</ele>
        <time>2013-05-05T11:14:32Z</time>
      </trkpt>
      <trkpt lat="32.78209" lon="-16.91625">
        <ele>916.273682</ele>
        <time>2013-05-05T11:14:46Z</time>
      </trkpt>
      <trkpt lat="32.78217" lon="-16.91611">
        <ele>915.3125</ele>
        <time>2013-05-05T11:14:54Z</time>
      </trkpt>
      <trkpt lat="32.78225" lon="-16.91586">
        <ele>915.793213</ele>
        <time>2013-05-05T11:15:08Z</time>
      </trkpt>
      <trkpt lat="32.78237" lon="-16.91578">
        <ele>915.3125</ele>
        <time>2013-05-05T11:15:18Z</time>
      </trkpt>
      <trkpt lat="32.78235" lon="-16.91554">
        <ele>915.3125</ele>
        <time>2013-05-05T11:15:31Z</time>
      </trkpt>
      <trkpt lat="32.7823" lon="-16.9154">
        <ele>914.831787</ele>
        <time>2013-05-05T11:15:42Z</time>
      </trkpt>
      <trkpt lat="32.78239" lon="-16.91527">
        <ele>915.3125</ele>
        <time>2013-05-05T11:15:54Z</time>
      </trkpt>
      <trkpt lat="32.78239" lon="-16.91521">
        <ele>915.3125</ele>
        <time>2013-05-05T11:15:59Z</time>
      </trkpt>
      <trkpt lat="32.78244" lon="-16.91516">
        <ele>914.831787</ele>
        <time>2013-05-05T11:16:03Z</time>
      </trkpt>
      <trkpt lat="32.7826" lon="-16.91502">
        <ele>914.351074</ele>
        <time>2013-05-05T11:16:16Z</time>
      </trkpt>
      <trkpt lat="32.78265" lon="-16.9149">
        <ele>915.3125</ele>
        <time>2013-05-05T11:16:28Z</time>
      </trkpt>
      <trkpt lat="32.78266" lon="-16.9148">
        <ele>914.831787</ele>
        <time>2013-05-05T11:16:39Z</time>
      </trkpt>
      <trkpt lat="32.78266" lon="-16.91479">
        <ele>914.351074</ele>
        <time>2013-05-05T11:16:40Z</time>
      </trkpt>
      <trkpt lat="32.78275" lon="-16.91464">
        <ele>914.831787</ele>
        <time>2013-05-05T11:16:52Z</time>
      </trkpt>
      <trkpt lat="32.78288" lon="-16.9146">
        <ele>914.351074</ele>
        <time>2013-05-05T11:17:03Z</time>
      </trkpt>
      <trkpt lat="32.78291" lon="-16.91454">
        <ele>914.831787</ele>
        <time>2013-05-05T11:17:09Z</time>
      </trkpt>
      <trkpt lat="32.78304" lon="-16.9144">
        <ele>914.831787</ele>
        <time>2013-05-05T11:17:21Z</time>
      </trkpt>
      <trkpt lat="32.78305" lon="-16.91435">
        <ele>914.351074</ele>
        <time>2013-05-05T11:17:24Z</time>
      </trkpt>
      <trkpt lat="32.7831" lon="-16.91417">
        <ele>913.870361</ele>
        <time>2013-05-05T11:17:35Z</time>
      </trkpt>
      <trkpt lat="32.78311" lon="-16.91403">
        <ele>914.351074</ele>
        <time>2013-05-05T11:17:45Z</time>
      </trkpt>
      <trkpt lat="32.7831" lon="-16.91399">
        <ele>914.351074</ele>
        <time>2013-05-05T11:17:47Z</time>
      </trkpt>
      <trkpt lat="32.78301" lon="-16.91384">
        <ele>913.870361</ele>
        <time>2013-05-05T11:18:00Z</time>
      </trkpt>
      <trkpt lat="32.78303" lon="-16.91377">
        <ele>910.505859</ele>
        <time>2013-05-05T11:18:13Z</time>
      </trkpt>
      <trkpt lat="32.78298" lon="-16.91354">
        <ele>907.141113</ele>
        <time>2013-05-05T11:18:27Z</time>
      </trkpt>
      <trkpt lat="32.78289" lon="-16.91356">
        <ele>904.737793</ele>
        <time>2013-05-05T11:18:44Z</time>
      </trkpt>
      <trkpt lat="32.78294" lon="-16.91363">
        <ele>904.257324</ele>
        <time>2013-05-05T11:19:08Z</time>
      </trkpt>
      <trkpt lat="32.78295" lon="-16.91361">
        <ele>904.737793</ele>
        <time>2013-05-05T11:19:12Z</time>
      </trkpt>
      <trkpt lat="32.78305" lon="-16.91354">
        <ele>905.699219</ele>
        <time>2013-05-05T11:19:22Z</time>
      </trkpt>
      <trkpt lat="32.78312" lon="-16.91343">
        <ele>908.102783</ele>
        <time>2013-05-05T11:19:35Z</time>
      </trkpt>
      <trkpt lat="32.78314" lon="-16.91336">
        <ele>910.986572</ele>
        <time>2013-05-05T11:19:46Z</time>
      </trkpt>
      <trkpt lat="32.78315" lon="-16.91335">
        <ele>911.467285</ele>
        <time>2013-05-05T11:19:47Z</time>
      </trkpt>
      <trkpt lat="32.78317" lon="-16.91333">
        <ele>912.428467</ele>
        <time>2013-05-05T11:19:51Z</time>
      </trkpt>
      <trkpt lat="32.78321" lon="-16.91323">
        <ele>913.870361</ele>
        <time>2013-05-05T11:20:04Z</time>
      </trkpt>
      <trkpt lat="32.78326" lon="-16.91305">
        <ele>913.870361</ele>
        <time>2013-05-05T11:20:17Z</time>
      </trkpt>
      <trkpt lat="32.78335" lon="-16.91302">
        <ele>913.870361</ele>
        <time>2013-05-05T11:20:21Z</time>
      </trkpt>
      <trkpt lat="32.78331" lon="-16.91284">
        <ele>912.90918</ele>
        <time>2013-05-05T11:20:32Z</time>
      </trkpt>
      <trkpt lat="32.7833" lon="-16.91276">
        <ele>913.389893</ele>
        <time>2013-05-05T11:20:39Z</time>
      </trkpt>
      <trkpt lat="32.78318" lon="-16.9127">
        <ele>913.870361</ele>
        <time>2013-05-05T11:20:49Z</time>
      </trkpt>
      <trkpt lat="32.78331" lon="-16.91263">
        <ele>912.428467</ele>
        <time>2013-05-05T11:21:01Z</time>
      </trkpt>
      <trkpt lat="32.78331" lon="-16.91248">
        <ele>913.870361</ele>
        <time>2013-05-05T11:21:13Z</time>
      </trkpt>
      <trkpt lat="32.78332" lon="-16.91247">
        <ele>912.90918</ele>
        <time>2013-05-05T11:21:14Z</time>
      </trkpt>
      <trkpt lat="32.78336" lon="-16.91237">
        <ele>912.90918</ele>
        <time>2013-05-05T11:21:22Z</time>
      </trkpt>
      <trkpt lat="32.78335" lon="-16.91231">
        <ele>912.428467</ele>
        <time>2013-05-05T11:21:27Z</time>
      </trkpt>
      <trkpt lat="32.78337" lon="-16.91223">
        <ele>911.947998</ele>
        <time>2013-05-05T11:21:33Z</time>
      </trkpt>
      <trkpt lat="32.78334" lon="-16.91218">
        <ele>912.90918</ele>
        <time>2013-05-05T11:21:36Z</time>
      </trkpt>
      <trkpt lat="32.78339" lon="-16.91198">
        <ele>912.90918</ele>
        <time>2013-05-05T11:21:51Z</time>
      </trkpt>
      <trkpt lat="32.78344" lon="-16.91191">
        <ele>912.90918</ele>
        <time>2013-05-05T11:21:58Z</time>
      </trkpt>
      <trkpt lat="32.78344" lon="-16.91186">
        <ele>912.428467</ele>
        <time>2013-05-05T11:22:07Z</time>
      </trkpt>
      <trkpt lat="32.78358" lon="-16.91175">
        <ele>912.428467</ele>
        <time>2013-05-05T11:22:27Z</time>
      </trkpt>
      <trkpt lat="32.78358" lon="-16.91175">
        <ele>912.428467</ele>
        <time>2013-05-05T11:22:29Z</time>
      </trkpt>
      <trkpt lat="32.78366" lon="-16.91169">
        <ele>912.428467</ele>
        <time>2013-05-05T11:22:41Z</time>
      </trkpt>
      <trkpt lat="32.7838" lon="-16.91165">
        <ele>911.947998</ele>
        <time>2013-05-05T11:22:51Z</time>
      </trkpt>
      <trkpt lat="32.78394" lon="-16.91157">
        <ele>912.428467</ele>
        <time>2013-05-05T11:22:59Z</time>
      </trkpt>
      <trkpt lat="32.78402" lon="-16.91151">
        <ele>912.428467</ele>
        <time>2013-05-05T11:23:05Z</time>
      </trkpt>
      <trkpt lat="32.78421" lon="-16.91146">
        <ele>912.428467</ele>
        <time>2013-05-05T11:23:17Z</time>
      </trkpt>
      <trkpt lat="32.78426" lon="-16.91139">
        <ele>911.947998</ele>
        <time>2013-05-05T11:23:27Z</time>
      </trkpt>
      <trkpt lat="32.78427" lon="-16.91137">
        <ele>912.428467</ele>
        <time>2013-05-05T11:23:28Z</time>
      </trkpt>
      <trkpt lat="32.78434" lon="-16.91128">
        <ele>912.428467</ele>
        <time>2013-05-05T11:23:37Z</time>
      </trkpt>
      <trkpt lat="32.78449" lon="-16.91121">
        <ele>911.947998</ele>
        <time>2013-05-05T11:23:48Z</time>
      </trkpt>
      <trkpt lat="32.78456" lon="-16.91116">
        <ele>911.467285</ele>
        <time>2013-05-05T11:23:53Z</time>
      </trkpt>
      <trkpt lat="32.78458" lon="-16.91098">
        <ele>911.467285</ele>
        <time>2013-05-05T11:24:05Z</time>
      </trkpt>
      <trkpt lat="32.78472" lon="-16.91084">
        <ele>911.467285</ele>
        <time>2013-05-05T11:24:17Z</time>
      </trkpt>
      <trkpt lat="32.78481" lon="-16.91074">
        <ele>910.505859</ele>
        <time>2013-05-05T11:24:27Z</time>
      </trkpt>
      <trkpt lat="32.7849" lon="-16.91059">
        <ele>910.986572</ele>
        <time>2013-05-05T11:24:38Z</time>
      </trkpt>
      <trkpt lat="32.78488" lon="-16.91042">
        <ele>910.025146</ele>
        <time>2013-05-05T11:24:49Z</time>
      </trkpt>
      <trkpt lat="32.7849" lon="-16.91026">
        <ele>910.505859</ele>
        <time>2013-05-05T11:25:00Z</time>
      </trkpt>
      <trkpt lat="32.78493" lon="-16.91007">
        <ele>910.505859</ele>
        <time>2013-05-05T11:25:11Z</time>
      </trkpt>
      <trkpt lat="32.785" lon="-16.90989">
        <ele>910.025146</ele>
        <time>2013-05-05T11:25:23Z</time>
      </trkpt>
      <trkpt lat="32.78506" lon="-16.90977">
        <ele>910.025146</ele>
        <time>2013-05-05T11:25:31Z</time>
      </trkpt>
      <trkpt lat="32.78515" lon="-16.90969">
        <ele>910.025146</ele>
        <time>2013-05-05T11:25:40Z</time>
      </trkpt>
      <trkpt lat="32.78521" lon="-16.90967">
        <ele>910.505859</ele>
        <time>2013-05-05T11:25:52Z</time>
      </trkpt>
      <trkpt lat="32.78536" lon="-16.90955">
        <ele>910.025146</ele>
        <time>2013-05-05T11:26:03Z</time>
      </trkpt>
      <trkpt lat="32.78552" lon="-16.90947">
        <ele>910.025146</ele>
        <time>2013-05-05T11:26:15Z</time>
      </trkpt>
      <trkpt lat="32.78559" lon="-16.90941">
        <ele>910.025146</ele>
        <time>2013-05-05T11:26:23Z</time>
      </trkpt>
      <trkpt lat="32.78571" lon="-16.90915">
        <ele>910.025146</ele>
        <time>2013-05-05T11:26:39Z</time>
      </trkpt>
      <trkpt lat="32.78575" lon="-16.90898">
        <ele>909.544678</ele>
        <time>2013-05-05T11:26:50Z</time>
      </trkpt>
      <trkpt lat="32.78582" lon="-16.90886">
        <ele>910.025146</ele>
        <time>2013-05-05T11:26:59Z</time>
      </trkpt>
      <trkpt lat="32.78594" lon="-16.90875">
        <ele>909.544678</ele>
        <time>2013-05-05T11:27:09Z</time>
      </trkpt>
      <trkpt lat="32.78602" lon="-16.9086">
        <ele>909.544678</ele>
        <time>2013-05-05T11:27:21Z</time>
      </trkpt>
      <trkpt lat="32.78612" lon="-16.90841">
        <ele>909.063965</ele>
        <time>2013-05-05T11:27:32Z</time>
      </trkpt>
      <trkpt lat="32.78614" lon="-16.90832">
        <ele>909.544678</ele>
        <time>2013-05-05T11:27:37Z</time>
      </trkpt>
      <trkpt lat="32.78621" lon="-16.90809">
        <ele>909.544678</ele>
        <time>2013-05-05T11:27:50Z</time>
      </trkpt>
      <trkpt lat="32.78621" lon="-16.90806">
        <ele>909.063965</ele>
        <time>2013-05-05T11:27:52Z</time>
      </trkpt>
      <trkpt lat="32.78619" lon="-16.90788">
        <ele>909.544678</ele>
        <time>2013-05-05T11:28:01Z</time>
      </trkpt>
      <trkpt lat="32.7862" lon="-16.90771">
        <ele>909.544678</ele>
        <time>2013-05-05T11:28:13Z</time>
      </trkpt>
      <trkpt lat="32.78613" lon="-16.9075">
        <ele>908.583252</ele>
        <time>2013-05-05T11:28:23Z</time>
      </trkpt>
      <trkpt lat="32.78613" lon="-16.90748">
        <ele>908.102783</ele>
        <time>2013-05-05T11:28:24Z</time>
      </trkpt>
      <trkpt lat="32.7861" lon="-16.90742">
        <ele>908.583252</ele>
        <time>2013-05-05T11:28:27Z</time>
      </trkpt>
      <trkpt lat="32.78599" lon="-16.90713">
        <ele>908.583252</ele>
        <time>2013-05-05T11:28:40Z</time>
      </trkpt>
      <trkpt lat="32.78585" lon="-16.90709">
        <ele>909.063965</ele>
        <time>2013-05-05T11:28:51Z</time>
      </trkpt>
      <trkpt lat="32.78577" lon="-16.90707">
        <ele>907.621826</ele>
        <time>2013-05-05T11:28:58Z</time>
      </trkpt>
      <trkpt lat="32.78561" lon="-16.90711">
        <ele>908.102783</ele>
        <time>2013-05-05T11:29:07Z</time>
      </trkpt>
      <trkpt lat="32.78552" lon="-16.90711">
        <ele>908.102783</ele>
        <time>2013-05-05T11:29:13Z</time>
      </trkpt>
      <trkpt lat="32.78532" lon="-16.90733">
        <ele>907.141113</ele>
        <time>2013-05-05T11:29:30Z</time>
      </trkpt>
      <trkpt lat="32.7852" lon="-16.90722">
        <ele>906.6604</ele>
        <time>2013-05-05T11:29:42Z</time>
      </trkpt>
      <trkpt lat="32.78517" lon="-16.90719">
        <ele>907.141113</ele>
        <time>2013-05-05T11:29:45Z</time>
      </trkpt>
      <trkpt lat="32.78515" lon="-16.90715">
        <ele>907.141113</ele>
        <time>2013-05-05T11:29:49Z</time>
      </trkpt>
      <trkpt lat="32.7852" lon="-16.90699">
        <ele>907.141113</ele>
        <time>2013-05-05T11:30:01Z</time>
      </trkpt>
      <trkpt lat="32.78521" lon="-16.90697">
        <ele>907.621826</ele>
        <time>2013-05-05T11:30:03Z</time>
      </trkpt>
      <trkpt lat="32.78518" lon="-16.9069">
        <ele>907.141113</ele>
        <time>2013-05-05T11:30:07Z</time>
      </trkpt>
      <trkpt lat="32.7851" lon="-16.90687">
        <ele>907.621826</ele>
        <time>2013-05-05T11:30:11Z</time>
      </trkpt>
      <trkpt lat="32.78496" lon="-16.90678">
        <ele>907.141113</ele>
        <time>2013-05-05T11:30:26Z</time>
      </trkpt>
      <trkpt lat="32.78491" lon="-16.90672">
        <ele>906.6604</ele>
        <time>2013-05-05T11:30:31Z</time>
      </trkpt>
      <trkpt lat="32.78487" lon="-16.90667">
        <ele>907.621826</ele>
        <time>2013-05-05T11:30:34Z</time>
      </trkpt>
      <trkpt lat="32.78481" lon="-16.90665">
        <ele>907.141113</ele>
        <time>2013-05-05T11:30:39Z</time>
      </trkpt>
      <trkpt lat="32.78461" lon="-16.9067">
        <ele>907.621826</ele>
        <time>2013-05-05T11:30:53Z</time>
      </trkpt>
      <trkpt lat="32.78449" lon="-16.90656">
        <ele>906.6604</ele>
        <time>2013-05-05T11:31:06Z</time>
      </trkpt>
      <trkpt lat="32.78448" lon="-16.90654">
        <ele>907.141113</ele>
        <time>2013-05-05T11:31:07Z</time>
      </trkpt>
      <trkpt lat="32.78435" lon="-16.90651">
        <ele>907.141113</ele>
        <time>2013-05-05T11:31:19Z</time>
      </trkpt>
      <trkpt lat="32.78417" lon="-16.90649">
        <ele>907.621826</ele>
        <time>2013-05-05T11:31:32Z</time>
      </trkpt>
      <trkpt lat="32.78407" lon="-16.90661">
        <ele>906.6604</ele>
        <time>2013-05-05T11:31:42Z</time>
      </trkpt>
      <trkpt lat="32.78403" lon="-16.90673">
        <ele>906.6604</ele>
        <time>2013-05-05T11:31:54Z</time>
      </trkpt>
      <trkpt lat="32.78403" lon="-16.90668">
        <ele>907.141113</ele>
        <time>2013-05-05T11:31:56Z</time>
      </trkpt>
      <trkpt lat="32.78394" lon="-16.90658">
        <ele>906.6604</ele>
        <time>2013-05-05T11:32:07Z</time>
      </trkpt>
      <trkpt lat="32.78387" lon="-16.90644">
        <ele>906.179688</ele>
        <time>2013-05-05T11:32:19Z</time>
      </trkpt>
      <trkpt lat="32.78386" lon="-16.90642">
        <ele>906.6604</ele>
        <time>2013-05-05T11:32:21Z</time>
      </trkpt>
      <trkpt lat="32.78399" lon="-16.90635">
        <ele>905.699219</ele>
        <time>2013-05-05T11:32:36Z</time>
      </trkpt>
      <trkpt lat="32.78394" lon="-16.90636">
        <ele>906.6604</ele>
        <time>2013-05-05T11:32:46Z</time>
      </trkpt>
      <trkpt lat="32.78384" lon="-16.90622">
        <ele>906.179688</ele>
        <time>2013-05-05T11:32:57Z</time>
      </trkpt>
      <trkpt lat="32.78381" lon="-16.90615">
        <ele>906.6604</ele>
        <time>2013-05-05T11:33:01Z</time>
      </trkpt>
      <trkpt lat="32.78376" lon="-16.90608">
        <ele>907.141113</ele>
        <time>2013-05-05T11:33:12Z</time>
      </trkpt>
    </trkseg>
  </trk>
</gpx>